HIGHLAND LAKE: From 01/23/2019 00:00 to 03/26/2019 00:00

Date LAKE ELEVATION [FT] OBSERVED RELEASE PRECIPITATION INCREMENT [IN] PRECIPITATION TOTAL [IN] AIR TEMPERATURE [F] RELATIVE HUMIDITY [%]
03/24/2019 05:00 1291.73 61.0 0.00 -- 25.3 49.0
03/24/2019 04:00 1291.73 62.0 0.00 -- 25.1 48.0
03/24/2019 03:00 1291.73 62.0 0.00 -- 25.0 45.0
03/24/2019 02:00 1291.72 62.0 0.00 -- 25.2 44.0
03/24/2019 01:00 1291.73 62.0 0.00 -- 25.7 43.0
03/24/2019 00:00 1291.73 63.0 0.00 -- 26.0 44.0
03/23/2019 23:00 1291.75 63.0 0.00 -- 26.4 43.0
03/23/2019 22:00 1291.75 63.0 0.00 -- 26.9 45.0
03/23/2019 21:00 1291.76 64.0 0.00 -- 27.8 47.0
03/23/2019 20:00 1291.76 64.0 0.00 -- 28.6 50.0
03/23/2019 19:00 1291.75 64.0 0.00 -- 30.3 49.0
03/23/2019 18:00 1291.75 64.0 0.00 -- 32.7 51.0
03/23/2019 17:00 1291.74 64.0 0.00 -- 33.2 53.0
03/23/2019 16:00 1291.74 64.0 0.00 -- 32.7 56.0
03/23/2019 15:00 1291.76 64.0 0.02 -- 32.8 56.0
03/23/2019 14:00 1291.76 64.0 0.00 -- 31.0 62.0
03/23/2019 13:00 1291.76 64.0 0.00 -- 28.1 66.0
03/23/2019 12:00 1291.77 63.0 0.02 -- 27.0 68.0
03/23/2019 11:00 1291.74 64.0 0.00 -- 26.2 71.0
03/23/2019 10:00 1291.77 63.0 0.00 -- 23.8 78.0
03/23/2019 09:00 1291.76 64.0 0.00 -- 24.7 77.0
03/23/2019 08:00 1291.77 64.0 0.00 -- 25.3 80.0
03/23/2019 07:00 1291.77 64.0 0.00 -- 25.6 87.0
03/23/2019 06:00 1291.77 64.0 0.00 -- 26.6 84.0
03/23/2019 05:00 1291.76 63.0 0.00 -- 26.9 96.0
03/23/2019 04:00 1291.76 64.0 0.00 -- 27.6 97.0
03/23/2019 03:00 1291.76 64.0 0.00 -- 28.4 89.0
03/23/2019 02:00 1291.76 64.0 0.00 -- 28.4 98.0
03/23/2019 01:00 1291.76 64.0 0.00 -- 29.2 99.0
03/23/2019 00:00 1291.76 64.0 0.00 0.04 30.6 99.0
03/22/2019 23:00 1291.75 64.0 0.00 -- 30.5 99.0
03/22/2019 22:00 1291.75 64.0 0.00 -- 30.7 96.0
03/22/2019 21:00 1291.76 63.0 0.00 -- 29.9 99.0
03/22/2019 20:00 1291.75 64.0 0.00 -- 29.8 99.0
03/22/2019 19:00 1291.75 63.0 0.00 -- 29.9 99.0
03/22/2019 18:00 1291.75 63.0 0.04 -- 30.2 99.0
03/22/2019 17:00 1291.75 63.0 0.08 -- 31.1 99.0
03/22/2019 16:00 1291.74 63.0 0.04 -- 32.2 99.0
03/22/2019 15:00 1291.75 63.0 0.00 -- 32.4 99.0
03/22/2019 14:00 1291.74 63.0 0.00 -- 32.7 99.0
03/22/2019 13:00 1291.73 63.0 0.00 -- 32.1 99.0
03/22/2019 12:00 1291.73 62.0 0.00 -- 31.8 99.0
03/22/2019 11:00 1291.73 62.0 0.00 -- 31.3 99.0
03/22/2019 10:00 1291.74 63.0 0.00 -- 30.9 99.0
03/22/2019 09:00 1291.73 63.0 0.00 -- 30.6 99.0
03/22/2019 08:00 1291.73 63.0 0.00 -- 30.4 100.0
03/22/2019 07:00 1291.72 62.0 0.00 -- 30.1 100.0
03/22/2019 06:00 1291.73 62.0 0.00 -- 30.3 100.0
03/22/2019 05:00 1291.72 62.0 0.00 -- 30.4 100.0
03/22/2019 04:00 1291.72 62.0 0.00 -- 30.4 100.0
03/22/2019 03:00 1291.72 61.0 0.00 -- 30.5 99.0
03/22/2019 02:00 1291.71 62.0 0.00 -- 30.9 99.0
03/22/2019 01:00 1291.71 61.0 0.00 -- 32.0 92.0
03/22/2019 00:00 1291.71 61.0 0.00 0.16 32.5 88.0
03/21/2019 23:00 1291.71 61.0 0.00 -- 33.3 70.0
03/21/2019 22:00 1291.71 61.0 0.00 -- 34.7 58.0
03/21/2019 21:00 1291.71 61.0 0.00 -- 32.5 85.0
03/21/2019 20:00 1291.71 61.0 0.00 -- 33.3 85.0
03/21/2019 19:00 1291.71 61.0 0.00 -- 34.7 83.0
03/21/2019 18:00 1291.70 61.0 0.00 -- 36.5 74.0
03/21/2019 17:00 1291.71 61.0 0.00 -- 39.9 55.0
03/21/2019 16:00 1291.70 61.0 0.00 -- 39.7 53.0
03/21/2019 15:00 1291.70 61.0 0.00 -- 41.6 51.0
03/21/2019 14:00 1291.70 61.0 0.00 -- 39.7 56.0
03/21/2019 13:00 1291.70 61.0 0.00 -- 41.4 43.0
03/21/2019 12:00 1291.71 61.0 0.00 -- 41.2 48.0
03/21/2019 11:00 1291.71 61.0 0.00 -- 41.0 53.0
03/21/2019 10:00 1291.71 61.0 0.00 -- 38.6 53.0
03/21/2019 09:00 1291.71 61.0 0.00 -- 36.0 57.0
03/21/2019 08:00 1291.71 61.0 0.00 -- 31.4 76.0
03/21/2019 07:00 1291.71 61.0 0.00 -- 29.7 78.0
03/21/2019 06:00 1291.72 62.0 0.00 -- 28.5 78.0
03/21/2019 05:00 1291.72 62.0 0.00 -- 29.3 73.0
03/21/2019 04:00 1291.72 62.0 0.00 -- 28.8 72.0
03/21/2019 03:00 1291.72 62.0 0.00 -- 27.5 73.0
03/21/2019 02:00 1291.72 62.0 0.00 -- 30.6 64.0
03/21/2019 01:00 1291.72 62.0 0.00 -- 32.9 54.0
03/21/2019 00:00 1291.73 62.0 0.00 0.00 33.8 46.0
03/20/2019 23:00 1291.73 62.0 0.00 -- 34.7 44.0
03/20/2019 22:00 1291.73 62.0 0.00 -- 35.6 45.0
03/20/2019 21:00 1291.73 63.0 0.00 -- 32.1 54.0
03/20/2019 20:00 1291.74 63.0 0.00 -- 29.8 59.0
03/20/2019 19:00 1291.74 63.0 0.00 -- 35.8 43.0
03/20/2019 18:00 1291.74 63.0 0.00 -- 42.6 30.0
03/20/2019 17:00 1291.74 63.0 0.00 -- 43.1 32.0
03/20/2019 16:00 1291.74 63.0 0.00 -- 46.4 27.0
03/20/2019 15:00 1291.74 63.0 0.00 -- 44.6 27.0
03/20/2019 14:00 1291.74 63.0 0.00 -- 42.7 30.0
03/20/2019 13:00 1291.75 63.0 0.00 -- 41.2 32.0
03/20/2019 12:00 1291.75 63.0 0.00 -- 37.6 38.0
03/20/2019 11:00 1291.75 63.0 0.00 -- 35.1 42.0
03/20/2019 10:00 1291.75 63.0 0.00 -- 31.8 48.0
03/20/2019 09:00 1291.76 63.0 0.00 -- 26.4 57.0
03/20/2019 08:00 1291.76 64.0 0.00 -- 15.0 91.0
03/20/2019 07:00 1291.76 64.0 0.00 -- 13.1 93.0
03/20/2019 06:00 1291.76 64.0 0.00 -- 13.1 93.0
03/20/2019 05:00 1291.77 64.0 0.00 -- 14.0 93.0
03/20/2019 04:00 1291.77 64.0 0.00 -- 14.8 92.0
03/20/2019 03:00 1291.78 65.0 0.00 -- 16.3 87.0
03/20/2019 02:00 1291.78 65.0 0.00 -- 17.3 83.0
03/20/2019 01:00 1291.78 65.0 0.00 -- 17.8 76.0
03/20/2019 00:00 1291.78 65.0 0.00 0.00 18.8 73.0
03/19/2019 23:00 1291.78 65.0 0.00 -- 20.2 71.0
03/19/2019 22:00 1291.79 65.0 0.00 -- 21.8 64.0
03/19/2019 21:00 1291.79 65.0 0.00 -- 23.8 57.0
03/19/2019 20:00 1291.79 65.0 0.00 -- 25.7 52.0
03/19/2019 19:00 1291.80 66.0 0.00 -- 29.6 39.0
03/19/2019 18:00 1291.80 66.0 0.00 -- 32.5 32.0
03/19/2019 17:00 1291.79 66.0 0.00 -- 33.0 28.0
03/19/2019 16:00 1291.82 67.0 0.00 -- 34.6 27.0
03/19/2019 15:00 1291.81 66.0 0.00 -- 34.8 29.0
03/19/2019 14:00 1291.81 67.0 0.00 -- 34.0 32.0
03/19/2019 13:00 1291.81 66.0 0.00 -- 30.1 40.0
03/19/2019 12:00 1291.81 67.0 0.00 -- 28.3 42.0
03/19/2019 11:00 1291.82 67.0 0.00 -- 26.7 55.0
03/19/2019 10:00 1291.83 67.0 0.00 -- 26.0 60.0
03/19/2019 09:00 1291.82 67.0 0.00 -- 24.3 65.0
03/19/2019 08:00 1291.82 67.0 0.00 -- 17.3 90.0
03/19/2019 07:00 1291.82 67.0 0.00 -- 16.9 91.0
03/19/2019 06:00 1291.82 67.0 0.00 -- 18.0 85.0
03/19/2019 05:00 1291.83 67.0 0.00 -- 16.1 86.0
03/19/2019 04:00 1291.83 68.0 0.00 -- 14.7 86.0
03/19/2019 03:00 1291.83 67.0 0.00 -- 15.4 84.0
03/19/2019 02:00 1291.84 68.0 0.00 -- 15.8 79.0
03/19/2019 01:00 1291.84 68.0 0.00 -- 17.2 75.0
03/19/2019 00:00 1291.83 68.0 0.00 0.00 18.3 72.0
03/18/2019 23:00 1291.84 68.0 0.00 -- 20.0 69.0
03/18/2019 22:00 1291.84 68.0 0.00 -- 22.1 65.0
03/18/2019 21:00 1291.84 68.0 0.00 -- 24.4 53.0
03/18/2019 20:00 1291.84 68.0 0.00 -- 27.4 44.0
03/18/2019 19:00 1291.85 68.0 0.00 -- 29.0 39.0
03/18/2019 18:00 1291.85 68.0 0.00 -- 30.4 31.0
03/18/2019 17:00 1291.85 68.0 0.00 -- 30.2 31.0
03/18/2019 16:00 1291.85 69.0 0.00 -- 31.6 28.0
03/18/2019 15:00 1291.85 69.0 0.00 -- 30.8 28.0
03/18/2019 14:00 1291.85 69.0 0.00 -- 31.1 27.0
03/18/2019 13:00 1291.85 69.0 0.00 -- 28.4 31.0
03/18/2019 12:00 1291.85 69.0 0.00 -- 26.6 35.0
03/18/2019 11:00 1291.86 69.0 0.00 -- 24.6 37.0
03/18/2019 10:00 1291.86 69.0 0.00 -- 22.4 43.0
03/18/2019 09:00 1291.86 68.0 0.00 -- 20.6 61.0
03/18/2019 08:00 1291.85 69.0 0.00 -- 14.0 78.0
03/18/2019 07:00 1291.85 69.0 0.00 -- 13.9 76.0
03/18/2019 06:00 1291.86 69.0 0.00 -- 13.0 72.0
03/18/2019 05:00 1291.85 69.0 0.00 -- 13.4 68.0
03/18/2019 04:00 1291.85 69.0 0.00 -- 16.3 61.0
03/18/2019 03:00 1291.85 69.0 0.00 -- 13.6 67.0
03/18/2019 02:00 1291.85 69.0 0.00 -- 14.5 67.0
03/18/2019 01:00 1291.85 68.0 0.00 -- 17.4 58.0
03/18/2019 00:00 1291.85 68.0 0.00 0.00 19.0 51.0
03/17/2019 23:00 1291.84 68.0 0.00 -- 21.2 42.0
03/17/2019 22:00 1291.85 68.0 0.00 -- 23.1 42.0
03/17/2019 21:00 1291.85 68.0 0.00 -- 24.0 46.0
03/17/2019 20:00 1291.84 68.0 0.00 -- 25.2 45.0
03/17/2019 19:00 1291.84 68.0 0.00 -- 26.5 39.0
03/17/2019 18:00 1291.83 68.0 0.00 -- 27.6 38.0
03/17/2019 17:00 1291.84 68.0 0.00 -- 28.3 33.0
03/17/2019 16:00 1291.83 67.0 0.00 -- 29.2 34.0
03/17/2019 15:00 1291.81 67.0 0.00 -- 29.1 34.0
03/17/2019 14:00 1291.82 66.0 0.00 -- 28.5 31.0
03/17/2019 13:00 1291.82 67.0 0.00 -- 27.0 33.0
03/17/2019 12:00 1291.81 66.0 0.00 -- 25.2 41.0
03/17/2019 11:00 1291.81 66.0 0.00 -- 23.4 52.0
03/17/2019 10:00 1291.80 66.0 0.00 -- 24.0 46.0
03/17/2019 09:00 1291.80 66.0 0.00 -- 23.4 43.0
03/17/2019 08:00 1291.78 66.0 0.00 -- 22.0 39.0
03/17/2019 07:00 1291.77 65.0 0.00 -- 21.6 41.0
03/17/2019 06:00 1291.76 65.0 0.00 -- 22.0 40.0
03/17/2019 05:00 1291.75 64.0 0.00 -- 22.5 42.0
03/17/2019 04:00 1291.76 64.0 0.00 -- 23.5 44.0
03/17/2019 03:00 1291.75 64.0 0.00 -- 24.6 44.0
03/17/2019 02:00 1291.74 63.0 0.00 -- 25.9 50.0
03/17/2019 01:00 1291.74 62.0 0.00 -- 26.6 53.0
03/17/2019 00:00 1291.71 62.0 0.00 0.00 26.9 52.0
03/16/2019 23:00 1291.70 61.0 0.00 -- 27.5 54.0
03/16/2019 22:00 1291.68 60.0 0.00 -- 28.0 52.0
03/16/2019 21:00 1291.67 60.0 0.00 -- 29.0 47.0
03/16/2019 20:00 1291.66 59.0 0.00 -- 29.0 52.0
03/16/2019 19:00 1291.64 59.0 0.00 -- 30.0 50.0
03/16/2019 18:00 1291.64 58.0 0.00 -- 30.9 45.0
03/16/2019 17:00 1291.63 58.0 0.00 -- 31.8 46.0
03/16/2019 16:00 1291.60 56.0 0.00 -- 32.7 44.0
03/16/2019 15:00 1291.58 56.0 0.00 -- 34.1 46.0
03/16/2019 14:00 1291.58 55.0 0.00 -- 34.9 46.0
03/16/2019 13:00 1291.57 54.0 0.00 -- 34.2 50.0
03/16/2019 12:00 1291.53 53.0 0.00 -- 36.1 49.0
03/16/2019 11:00 1291.53 53.0 0.00 -- 35.8 45.0
03/16/2019 10:00 1291.49 51.0 0.00 -- 35.7 50.0
03/16/2019 09:00 1291.51 50.0 0.00 -- 35.9 53.0
03/16/2019 08:00 1291.46 50.0 0.00 -- 36.1 59.0
03/16/2019 07:00 1291.46 49.0 0.00 -- 36.3 60.0
03/16/2019 06:00 1291.44 49.0 0.00 -- 36.4 64.0
03/16/2019 05:00 1291.43 48.0 0.00 -- 37.6 62.0
03/16/2019 04:00 1291.40 47.0 0.00 -- 38.6 71.0
03/16/2019 03:00 1291.39 46.0 0.00 -- 41.2 65.0
03/16/2019 02:00 1291.38 45.0 0.00 -- 41.0 71.0
03/16/2019 01:00 1291.36 44.0 0.01 -- 41.8 73.0
03/16/2019 00:00 1291.33 44.0 0.00 0.01 42.6 100.0
03/15/2019 23:00 1291.31 43.0 0.00 -- 41.8 100.0
03/15/2019 22:00 1291.29 42.0 0.00 -- 38.8 100.0
03/15/2019 21:00 1291.27 41.0 0.00 -- 34.7 100.0
03/15/2019 20:00 1291.25 40.0 0.00 -- 36.8 100.0
03/15/2019 19:00 1291.23 39.0 0.00 -- 42.1 100.0
03/15/2019 18:00 1291.21 38.0 0.00 -- 49.6 88.0
03/15/2019 17:00 1291.17 37.0 0.00 -- 53.8 82.0
03/15/2019 16:00 1291.15 36.0 0.00 -- 58.1 69.0
03/15/2019 15:00 1291.13 35.0 0.00 -- 52.0 91.0
03/15/2019 14:00 1291.10 34.0 0.00 -- 50.9 94.0
03/15/2019 13:00 1291.08 32.0 0.00 -- 49.3 99.0
03/15/2019 12:00 1291.07 32.0 0.00 -- 46.9 100.0
03/15/2019 11:00 1291.05 31.0 0.00 -- 47.6 100.0
03/15/2019 10:00 1291.05 30.0 0.02 -- 47.5 100.0
03/15/2019 09:00 1291.04 31.0 0.05 -- 45.0 100.0
03/15/2019 08:00 1291.03 31.0 0.08 -- 44.1 100.0
03/15/2019 07:00 1291.05 31.0 0.05 -- 44.5 99.0
03/15/2019 06:00 1291.04 30.0 0.04 -- 43.3 99.0
03/15/2019 05:00 1291.03 30.0 0.05 -- 42.6 98.0
03/15/2019 04:00 -- 30.0 0.04 -- 42.6 93.0
03/15/2019 03:00 -- 30.0 0.04 -- 42.6 84.0
03/15/2019 02:00 -- 30.0 0.05 -- 41.6 80.0
03/15/2019 01:00 -- 29.0 0.05 -- 40.8 82.0
03/15/2019 00:00 -- 29.0 0.03 0.47 39.7 83.0
03/14/2019 23:00 -- 29.0 0.00 -- 34.3 77.0
03/14/2019 22:00 -- 29.0 0.00 -- 32.2 78.0
03/14/2019 21:00 -- 29.0 0.01 -- 34.4 72.0
03/14/2019 20:00 -- 29.0 0.00 -- 35.8 65.0
03/14/2019 19:00 -- 29.0 0.02 -- 38.0 63.0
03/14/2019 18:00 -- 29.0 0.04 -- 42.1 52.0
03/14/2019 17:00 -- 29.0 0.08 -- 45.6 45.0
03/14/2019 16:00 -- 29.0 0.10 -- 49.9 39.0
03/14/2019 15:00 -- 29.0 0.10 -- 45.9 41.0
03/14/2019 14:00 -- 29.0 0.07 -- 41.9 48.0
03/14/2019 13:00 -- 29.0 0.06 -- 42.9 47.0
03/14/2019 12:00 -- 29.0 0.03 -- 39.8 52.0
03/14/2019 11:00 -- 29.0 0.02 -- 38.0 59.0
03/14/2019 10:00 -- 29.0 0.00 -- 34.1 70.0
03/14/2019 09:00 -- 29.0 0.00 -- 31.6 81.0
03/14/2019 08:00 -- 29.0 0.00 -- 30.3 86.0
03/14/2019 07:00 -- 29.0 0.00 -- 29.7 87.0
03/14/2019 06:00 -- -- 0.00 -- 29.7 83.0
03/14/2019 05:00 -- 29.0 0.00 -- 29.8 82.0
03/14/2019 04:00 -- 29.0 0.00 -- 30.1 78.0
03/14/2019 03:00 -- 29.0 0.00 -- 30.1 76.0
03/14/2019 02:00 -- 29.0 0.00 -- 30.3 74.0
03/14/2019 01:00 -- 29.0 0.00 -- 30.6 73.0
03/14/2019 00:00 -- 29.0 0.00 0.56 30.9 75.0
03/13/2019 23:00 -- 29.0 0.00 -- 30.6 72.0
03/13/2019 22:00 -- 29.0 0.00 -- 30.8 73.0
03/13/2019 21:00 -- 29.0 0.00 -- 32.1 60.0
03/13/2019 20:00 -- 30.0 0.00 -- 34.0 34.0
03/13/2019 19:00 -- 30.0 0.00 -- 34.4 39.0
03/13/2019 18:00 -- 29.0 0.01 -- 36.5 37.0
03/13/2019 17:00 -- 30.0 0.01 -- 37.7 36.0
03/13/2019 16:00 -- 29.0 0.01 -- 38.7 24.0
03/13/2019 15:00 -- 29.0 0.01 -- 37.5 25.0
03/13/2019 14:00 -- 30.0 0.00 -- 37.5 24.0
03/13/2019 13:00 -- 30.0 0.00 -- -40.0 0.0
03/13/2019 12:00 -- -- 0.01 -- -40.0 0.0
03/13/2019 11:00 -- -- 0.00 -- 33.6 35.0
03/13/2019 10:00 -- -- 0.00 -- 27.0 48.0
03/13/2019 09:00 -- -- 0.00 -- 19.5 63.0
03/13/2019 08:00 -- -- 0.00 -- 9.7 86.0
03/13/2019 07:00 -- -- 0.00 -- 8.9 87.0
03/13/2019 06:00 -- -- 0.00 -- 10.0 85.0
03/13/2019 05:00 -- -- 0.00 -- 12.0 82.0
03/13/2019 04:00 -- -- 0.00 -- 13.3 80.0
03/13/2019 03:00 -- -- 0.00 -- 14.1 78.0
03/13/2019 02:00 -- -- 0.00 -- 14.6 76.0
03/13/2019 01:00 -- -- 0.00 -- 16.9 75.0
03/13/2019 00:00 -- -- 0.00 0.05 17.8 72.0
03/12/2019 23:00 -- -- 0.00 -- 20.9 67.0
03/12/2019 22:00 -- -- 0.00 -- 23.3 63.0
03/12/2019 21:00 -- -- 0.00 -- 26.4 52.0
03/12/2019 20:00 -- -- 0.00 -- 28.5 47.0
03/12/2019 19:00 -- -- 0.00 -- 29.2 50.0
03/12/2019 18:00 -- -- 0.00 -- 31.8 43.0
03/12/2019 17:00 -- -- 0.00 -- 32.2 44.0
03/12/2019 16:00 -- -- 0.00 -- 33.2 42.0
03/12/2019 15:00 -- -- 0.00 -- 34.1 44.0
03/12/2019 14:00 -- -- 0.00 -- 32.7 48.0
03/12/2019 13:00 -- -- 0.00 -- 29.9 54.0
03/12/2019 12:00 -- -- 0.00 -- 28.1 66.0
03/12/2019 11:00 -- -- 0.00 -- 26.4 74.0
03/12/2019 10:00 -- -- 0.00 -- 26.0 71.0
03/12/2019 09:00 -- -- 0.00 -- 25.2 73.0
03/12/2019 08:00 -- -- 0.00 -- 24.8 71.0
03/12/2019 07:00 -- -- 0.00 -- 24.3 68.0
03/12/2019 06:00 -- -- 0.00 -- 25.0 67.0
03/12/2019 05:00 -- -- 0.00 -- 25.4 78.0
03/12/2019 04:00 -- -- 0.00 -- 26.0 75.0
03/12/2019 03:00 -- -- 0.00 -- 26.4 70.0
03/12/2019 02:00 -- -- 0.00 -- 26.7 68.0
03/12/2019 01:00 -- -- 0.00 -- 27.7 62.0
03/12/2019 00:00 -- -- 0.00 0.00 28.7 59.0
03/11/2019 23:00 -- -- 0.00 -- 29.3 60.0
03/11/2019 22:00 -- -- 0.00 -- 29.9 60.0
03/11/2019 21:00 -- -- 0.00 -- 30.4 62.0
03/11/2019 20:00 -- -- 0.00 -- 30.8 62.0
03/11/2019 19:00 -- -- 0.00 -- 31.8 57.0
03/11/2019 18:00 -- -- 0.00 -- 32.7 58.0
03/11/2019 17:00 -- -- 0.01 -- 33.6 54.0
03/11/2019 16:00 -- -- 0.01 -- 34.7 52.0
03/11/2019 15:00 -- -- 0.01 -- 35.0 50.0
03/11/2019 14:00 -- -- 0.02 -- 35.0 53.0
03/11/2019 13:00 -- -- 0.03 -- 36.2 52.0
03/11/2019 12:00 -- -- 0.00 -- 35.3 55.0
03/11/2019 11:00 -- -- 0.00 -- 35.6 59.0
03/11/2019 10:00 -- -- 0.00 -- 33.9 68.0
03/11/2019 09:00 -- -- 0.00 -- 32.2 75.0
03/11/2019 08:00 -- -- 0.00 -- 31.7 79.0
03/11/2019 07:00 -- -- 0.00 -- 31.4 81.0
03/11/2019 06:00 -- -- 0.00 -- 31.5 79.0
03/11/2019 05:00 -- -- 0.01 -- 32.3 81.0
03/11/2019 04:00 -- -- 0.00 -- 32.5 84.0
03/11/2019 03:00 -- -- 0.00 -- 32.3 91.0
03/11/2019 02:00 -- -- 0.00 -- 31.1 99.0
03/11/2019 01:00 -- -- 0.00 -- 29.6 100.0
03/11/2019 00:00 -- -- 0.00 0.09 29.2 100.0
03/10/2019 23:00 -- -- 0.00 -- 28.9 100.0
03/10/2019 22:00 -- -- 0.00 -- 28.8 100.0
03/10/2019 21:00 -- -- 0.00 -- 28.7 100.0
03/10/2019 20:00 -- -- 0.00 -- 28.5 100.0
03/10/2019 19:00 -- -- 0.00 -- 28.7 99.0
03/10/2019 18:00 -- -- 0.00 -- 29.0 99.0
03/10/2019 17:00 -- -- 0.00 -- 28.7 99.0
03/10/2019 16:00 -- -- 0.00 -- 28.0 99.0
03/10/2019 15:00 -- -- 0.00 -- 26.9 99.0
03/10/2019 14:00 -- -- 0.00 -- 27.0 99.0
03/10/2019 13:00 -- -- 0.00 -- 27.1 99.0
03/10/2019 12:00 -- -- 0.00 -- 25.4 99.0
03/10/2019 11:00 -- -- 0.00 -- 24.8 99.0
03/10/2019 10:00 -- -- 0.00 -- 24.3 99.0
03/10/2019 09:00 -- -- 0.00 -- 23.6 99.0
03/10/2019 08:00 -- -- 0.00 -- 23.3 99.0
03/10/2019 07:00 -- -- 0.00 -- 24.1 79.0
03/10/2019 06:00 -- -- 0.00 -- 23.7 74.0
03/10/2019 05:00 -- -- 0.00 -- 23.2 68.0
03/10/2019 04:00 -- -- 0.00 -- 23.2 68.0
03/10/2019 03:00 -- -- 0.00 -- 23.0 66.0
03/10/2019 02:00 -- -- 0.00 -- 23.0 63.0
03/10/2019 01:00 -- -- 0.00 -- 23.0 63.0
03/10/2019 00:00 -- -- 0.00 0.00 15.9 80.0
03/09/2019 23:00 -- -- 0.00 -- 14.5 75.0
03/09/2019 22:00 -- -- 0.00 -- 16.1 74.0
03/09/2019 21:00 -- -- 0.00 -- 16.8 73.0
03/09/2019 20:00 -- -- 0.00 -- 19.2 66.0
03/09/2019 19:00 -- -- 0.00 -- 22.8 57.0
03/09/2019 18:00 -- -- 0.00 -- 27.0 55.0
03/09/2019 17:00 -- -- 0.00 -- 34.3 29.0
03/09/2019 16:00 -- -- 0.01 -- 35.6 25.0
03/09/2019 15:00 -- -- 0.02 -- 37.9 25.0
03/09/2019 14:00 -- -- 0.01 -- 38.0 20.0
03/09/2019 13:00 -- -- 0.00 -- 36.7 25.0
03/09/2019 12:00 -- -- 0.00 -- 33.9 27.0
03/09/2019 11:00 -- -- 0.00 -- 31.8 26.0
03/09/2019 10:00 -- -- 0.00 -- 29.3 32.0
03/09/2019 09:00 -- -- 0.00 -- 26.1 37.0
03/09/2019 08:00 -- -- 0.00 -- 12.3 72.0
03/09/2019 07:00 -- -- 0.00 -- 9.8 81.0
03/09/2019 06:00 -- -- 0.00 -- 12.2 73.0
03/09/2019 05:00 -- -- 0.00 -- 15.4 65.0
03/09/2019 04:00 -- -- 0.00 -- 15.9 62.0
03/09/2019 03:00 -- -- 0.00 -- 16.2 59.0
03/09/2019 02:00 -- -- 0.00 -- 13.9 62.0
03/09/2019 01:00 -- -- 0.00 -- 17.0 51.0
03/09/2019 00:00 -- -- 0.00 0.04 15.0 58.0
03/08/2019 23:00 -- -- 0.00 -- 18.4 52.0
03/08/2019 22:00 -- -- 0.00 -- 22.6 40.0
03/08/2019 21:00 -- -- 0.00 -- 22.7 41.0
03/08/2019 20:00 -- -- 0.00 -- 24.3 39.0
03/08/2019 19:00 -- -- 0.00 -- 24.0 39.0
03/08/2019 18:00 -- -- 0.00 -- 25.4 35.0
03/08/2019 17:00 -- -- 0.00 -- 29.1 32.0
03/08/2019 16:00 -- -- 0.00 -- 30.1 28.0
03/08/2019 15:00 -- -- 0.00 -- 31.5 31.0
03/08/2019 14:00 -- -- 0.00 -- 28.2 35.0
03/08/2019 13:00 -- -- 0.00 -- 27.6 37.0
03/08/2019 12:00 -- -- 0.00 -- 24.4 40.0
03/08/2019 11:00 -- -- 0.00 -- 21.5 44.0
03/08/2019 10:00 -- -- 0.00 -- 18.0 49.0
03/08/2019 09:00 -- -- 0.00 -- 14.8 58.0
03/08/2019 08:00 -- -- 0.00 -- 10.1 65.0
03/08/2019 07:00 -- -- 0.00 -- 3.4 81.0
03/08/2019 06:00 -- -- 0.00 -- 0.4 82.0
03/08/2019 05:00 -- -- 0.00 -- -2.7 81.0
03/08/2019 04:00 -- -- 0.00 -- 0.2 80.0
03/08/2019 03:00 -- -- 0.00 -- 2.1 75.0
03/08/2019 02:00 -- -- 0.00 -- -1.3 77.0
03/08/2019 01:00 -- -- 0.00 -- -0.4 73.0
03/08/2019 00:00 -- -- 0.00 0.00 1.6 66.0
03/07/2019 23:00 -- -- 0.00 -- 5.3 59.0
03/07/2019 22:00 -- -- 0.00 -- 10.8 46.0
03/07/2019 21:00 -- -- 0.00 -- 11.1 49.0
03/07/2019 20:00 -- -- 0.00 -- 12.7 48.0
03/07/2019 19:00 -- -- 0.00 -- 13.4 47.0
03/07/2019 18:00 -- -- 0.00 -- 14.7 52.0
03/07/2019 17:00 -- -- 0.00 -- 16.1 46.0
03/07/2019 16:00 -- -- 0.00 -- 16.8 45.0
03/07/2019 15:00 -- -- 0.00 -- 18.1 38.0
03/07/2019 14:00 -- -- 0.00 -- 18.5 33.0
03/07/2019 13:00 -- -- 0.00 -- 17.5 37.0
03/07/2019 12:00 -- -- 0.00 -- 16.2 37.0
03/07/2019 11:00 -- -- 0.00 -- 12.9 41.0
03/07/2019 10:00 -- -- 0.00 -- 9.8 46.0
03/07/2019 09:00 -- -- 0.00 -- 7.4 54.0
03/07/2019 08:00 -- -- 0.00 -- 2.9 61.0
03/07/2019 07:00 -- -- 0.00 -- -7.1 78.0
03/07/2019 06:00 -- -- 0.00 -- -8.4 74.0
03/07/2019 05:00 -- -- 0.00 -- -7.3 74.0
03/07/2019 04:00 -- -- 0.00 -- -9.7 71.0
03/07/2019 03:00 -- -- 0.00 -- -7.9 74.0
03/07/2019 02:00 -- -- 0.00 -- -6.0 66.0
03/07/2019 01:00 -- -- 0.00 -- -3.9 59.0
03/07/2019 00:00 -- -- 0.00 0.00 0.0 54.0
03/06/2019 23:00 -- -- 0.00 -- 4.1 42.0
03/06/2019 22:00 -- -- 0.00 -- 7.6 34.0
03/06/2019 21:00 -- -- 0.00 -- 8.5 36.0
03/06/2019 20:00 -- -- 0.00 -- 8.1 44.0
03/06/2019 19:00 -- -- 0.00 -- 10.6 33.0
03/06/2019 18:00 -- -- 0.00 -- 11.9 34.0
03/06/2019 17:00 -- -- 0.00 -- 11.7 45.0
03/06/2019 16:00 -- -- 0.00 -- 14.1 29.0
03/06/2019 15:00 -- -- 0.00 -- 13.9 28.0
03/06/2019 14:00 -- -- 0.00 -- 16.1 30.0
03/06/2019 13:00 -- -- 0.00 -- 14.5 28.0
03/06/2019 12:00 -- -- 0.00 -- 13.7 28.0
03/06/2019 11:00 -- -- 0.00 -- 13.6 29.0
03/06/2019 10:00 -- -- 0.00 -- 11.0 36.0
03/06/2019 09:00 -- -- 0.00 -- 8.6 40.0
03/06/2019 08:00 -- -- 0.00 -- 6.8 46.0
03/06/2019 07:00 -- -- 0.00 -- 3.7 57.0
03/06/2019 06:00 -- -- 0.00 -- -4.6 79.0
03/06/2019 05:00 -- -- 0.00 -- 0.1 74.0
03/06/2019 04:00 -- -- 0.00 -- 4.0 65.0
03/06/2019 03:00 -- -- 0.00 -- 5.5 66.0
03/06/2019 02:00 -- -- 0.00 -- 6.4 63.0
03/06/2019 01:00 -- -- 0.00 -- 8.0 68.0
03/06/2019 00:00 -- -- 0.00 0.00 9.6 66.0
03/05/2019 23:00 -- -- 0.00 -- 10.2 62.0
03/05/2019 22:00 -- -- 0.00 -- 13.0 57.0
03/05/2019 21:00 -- -- 0.00 -- 13.7 54.0
03/05/2019 20:00 -- -- 0.00 -- 8.1 71.0
03/05/2019 19:00 -- -- 0.00 -- 8.9 72.0
03/05/2019 18:00 -- -- 0.00 -- 14.7 56.0
03/05/2019 17:00 -- -- 0.00 -- 19.8 41.0
03/05/2019 16:00 -- -- 0.00 -- 20.3 36.0
03/05/2019 15:00 -- -- 0.00 -- 22.2 34.0
03/05/2019 14:00 -- -- 0.00 -- 21.4 36.0
03/05/2019 13:00 -- -- 0.00 -- 20.7 38.0
03/05/2019 12:00 -- -- 0.00 -- 18.7 40.0
03/05/2019 11:00 -- -- 0.00 -- 15.5 45.0
03/05/2019 10:00 -- -- 0.00 -- 13.1 50.0
03/05/2019 09:00 -- -- 0.00 -- 10.2 55.0
03/05/2019 08:00 -- -- 0.00 -- 6.8 64.0
03/05/2019 07:00 -- -- 0.00 -- -0.5 81.0
03/05/2019 06:00 -- -- 0.00 -- -0.6 83.0
03/05/2019 05:00 -- -- 0.00 -- 0.3 83.0
03/05/2019 04:00 -- -- 0.00 -- 2.9 81.0
03/05/2019 03:00 -- -- 0.00 -- 6.3 74.0
03/05/2019 02:00 -- -- 0.00 -- 6.1 74.0
03/05/2019 01:00 -- -- 0.00 -- 5.2 75.0
03/05/2019 00:00 -- -- 0.00 0.00 10.0 58.0
03/04/2019 23:00 -- -- 0.00 -- 12.5 52.0
03/04/2019 22:00 -- -- 0.00 -- 15.0 51.0
03/04/2019 21:00 -- -- 0.00 -- 17.4 61.0
03/04/2019 20:00 -- -- 0.00 -- 19.4 75.0
03/04/2019 19:00 -- -- 0.00 -- 22.0 78.0
03/04/2019 18:00 -- -- 0.00 -- 23.3 66.0
03/04/2019 17:00 -- -- 0.00 -- 24.9 65.0
03/04/2019 16:00 -- -- 0.00 -- 26.4 61.0
03/04/2019 15:00 -- -- 0.00 -- 28.0 59.0
03/04/2019 14:00 -- -- 0.00 -- 27.0 65.0
03/04/2019 13:00 -- -- 0.00 -- 26.2 78.0
03/04/2019 12:00 -- -- 0.00 -- 28.0 71.0
03/04/2019 11:00 -- -- 0.00 -- 28.5 78.0
03/04/2019 10:00 -- -- 0.00 -- 27.1 86.0
03/04/2019 09:00 -- -- 0.00 -- 26.8 91.0
03/04/2019 08:00 -- -- 0.00 -- 25.9 99.0
03/04/2019 07:00 -- -- 0.00 -- 25.2 99.0
03/04/2019 06:00 -- -- 0.00 -- 25.1 99.0
03/04/2019 05:00 -- -- 0.00 -- 25.4 99.0
03/04/2019 04:00 -- -- 0.00 -- 25.6 99.0
03/04/2019 03:00 -- -- 0.00 -- 25.8 99.0
03/04/2019 02:00 -- -- 0.00 -- 26.0 99.0
03/04/2019 01:00 -- -- 0.00 -- 26.2 99.0
03/04/2019 00:00 -- -- 0.00 0.00 26.3 99.0
03/03/2019 23:00 -- -- 0.00 -- 26.1 99.0
03/03/2019 22:00 -- -- 0.00 -- 26.2 99.0
03/03/2019 21:00 -- -- 0.00 -- 26.7 92.0
03/03/2019 20:00 -- -- 0.00 -- 27.5 67.0
03/03/2019 19:00 -- -- 0.00 -- 27.6 66.0
03/03/2019 18:00 -- -- 0.00 -- 28.3 60.0
03/03/2019 17:00 -- -- 0.00 -- 30.4 55.0
03/03/2019 16:00 -- -- 0.00 -- 31.4 51.0
03/03/2019 15:00 -- -- 0.00 -- 31.3 51.0
03/03/2019 14:00 -- -- 0.00 -- 30.0 54.0
03/03/2019 13:00 -- -- 0.00 -- 31.6 48.0
03/03/2019 12:00 -- -- 0.00 -- 29.4 53.0
03/03/2019 11:00 -- -- 0.00 -- 28.4 56.0
03/03/2019 10:00 -- -- 0.00 -- 29.0 51.0
03/03/2019 09:00 -- -- 0.00 -- 26.9 59.0
03/03/2019 08:00 -- -- 0.00 -- 25.7 69.0
03/03/2019 07:00 -- -- 0.00 -- 25.0 80.0
03/03/2019 06:00 -- -- 0.00 -- 24.0 95.0
03/03/2019 05:00 -- -- 0.00 -- 23.2 99.0
03/03/2019 04:00 -- -- 0.00 -- 22.5 98.0
03/03/2019 03:00 -- -- 0.00 -- 22.5 97.0
03/03/2019 02:00 -- -- 0.00 -- 21.9 98.0
03/03/2019 01:00 -- -- 0.00 -- 21.5 97.0
03/03/2019 00:00 -- -- 0.00 0.00 20.8 96.0
03/02/2019 23:00 -- -- 0.00 -- 19.4 95.0
03/02/2019 22:00 -- -- 0.00 -- 22.1 90.0
03/02/2019 21:00 -- -- 0.00 -- 24.9 71.0
03/02/2019 20:00 -- -- 0.00 -- 25.9 54.0
03/02/2019 19:00 -- -- 0.00 -- 25.5 50.0
03/02/2019 18:00 -- -- 0.00 -- 26.2 45.0
03/02/2019 17:00 -- -- 0.00 -- 27.1 40.0
03/02/2019 16:00 -- -- 0.00 -- 27.9 41.0
03/02/2019 15:00 -- -- 0.00 -- 29.1 35.0
03/02/2019 14:00 -- -- 0.00 -- 29.2 37.0
03/02/2019 13:00 -- -- 0.00 -- 29.5 44.0
03/02/2019 12:00 -- -- 0.00 -- 28.5 51.0
03/02/2019 11:00 -- -- 0.00 -- 28.5 61.0
03/02/2019 10:00 -- -- 0.00 -- 25.4 64.0
03/02/2019 09:00 -- -- 0.00 -- 23.4 64.0
03/02/2019 08:00 -- -- 0.00 -- 21.3 74.0
03/02/2019 07:00 -- -- 0.00 -- 17.8 86.0
03/02/2019 06:00 -- -- 0.00 -- 16.1 88.0
03/02/2019 05:00 -- -- 0.00 -- 14.6 90.0
03/02/2019 04:00 -- -- 0.00 -- 12.3 95.0
03/02/2019 03:00 -- -- 0.00 -- 13.0 95.0
03/02/2019 02:00 -- -- 0.00 -- 14.4 90.0
03/02/2019 01:00 -- -- 0.00 -- 15.5 89.0
03/02/2019 00:00 -- -- 0.00 0.00 16.7 86.0
03/01/2019 23:00 -- -- 0.00 -- 17.1 85.0
03/01/2019 22:00 -- -- 0.00 -- 18.0 84.0
03/01/2019 21:00 -- -- 0.00 -- 18.9 82.0
03/01/2019 20:00 -- -- 0.00 -- 19.8 80.0
03/01/2019 19:00 -- -- 0.00 -- 21.6 77.0
03/01/2019 18:00 -- -- 0.00 -- 24.6 71.0
03/01/2019 17:00 -- -- 0.00 -- 28.8 52.0
03/01/2019 16:00 -- -- 0.01 -- 30.4 46.0
03/01/2019 15:00 -- -- 0.01 -- 32.9 44.0
03/01/2019 14:00 -- -- 0.00 -- 33.2 40.0
03/01/2019 13:00 -- -- 0.00 -- 30.2 40.0
03/01/2019 12:00 -- -- 0.00 -- 27.0 45.0
03/01/2019 11:00 -- -- 0.00 -- 23.1 48.0
03/01/2019 10:00 -- -- 0.00 -- 19.2 37.0
03/01/2019 09:00 -- -- 0.00 -- 15.9 40.0
03/01/2019 08:00 -- -- 0.00 -- 7.2 66.0
03/01/2019 07:00 -- -- 0.00 -- 2.5 76.0
03/01/2019 06:00 -- -- 0.00 -- -0.4 79.0
03/01/2019 05:00 -- -- 0.00 -- -1.9 82.0
03/01/2019 04:00 -- -- 0.00 -- -0.7 81.0
03/01/2019 03:00 -- -- 0.00 -- -1.6 81.0
03/01/2019 02:00 -- -- 0.00 -- -0.4 81.0
03/01/2019 01:00 -- -- 0.00 -- 0.0 81.0
03/01/2019 00:00 -- -- 0.00 0.02 0.8 82.0
02/28/2019 23:00 -- -- 0.00 -- 1.2 83.0
02/28/2019 22:00 -- -- 0.00 -- 2.3 83.0
02/28/2019 21:00 -- -- 0.00 -- 3.6 80.0
02/28/2019 20:00 -- -- 0.00 -- 6.7 74.0
02/28/2019 19:00 -- -- 0.00 -- 10.1 70.0
02/28/2019 18:00 -- -- 0.00 -- 14.4 62.0
02/28/2019 17:00 -- -- 0.00 -- 19.8 32.0
02/28/2019 16:00 -- -- 0.00 -- 20.3 31.0
02/28/2019 15:00 -- -- 0.00 -- 24.0 31.0
02/28/2019 14:00 -- -- 0.00 -- 22.0 34.0
02/28/2019 13:00 -- -- 0.00 -- 21.4 51.0
02/28/2019 12:00 -- -- 0.00 -- 17.7 55.0
02/28/2019 11:00 -- -- 0.00 -- 15.8 63.0
02/28/2019 10:00 -- -- 0.00 -- 13.4 67.0
02/28/2019 09:00 1290.67 42.0 0.00 -- 11.7 77.0
02/28/2019 08:00 1290.68 42.0 0.00 -- 8.5 81.0
02/28/2019 07:00 1290.68 42.0 0.00 -- 7.6 84.0
02/28/2019 06:00 1290.68 -- 0.00 -- 7.4 85.0
02/28/2019 05:00 1290.68 42.0 0.00 -- 7.3 85.0
02/28/2019 04:00 1290.69 42.0 0.00 -- 7.0 84.0
02/28/2019 03:00 1290.68 42.0 0.00 -- 7.2 85.0
02/28/2019 02:00 1290.68 42.0 0.00 -- 7.5 86.0
02/28/2019 01:00 1290.68 42.0 0.00 -- 7.6 86.0
02/28/2019 00:00 1290.68 42.0 0.00 0.00 7.8 86.0
02/27/2019 23:00 1290.68 42.0 0.00 -- 7.8 85.0
02/27/2019 22:00 1290.68 42.0 0.00 -- 7.9 85.0
02/27/2019 21:00 1290.68 43.0 0.00 -- 7.8 83.0
02/27/2019 20:00 1290.69 43.0 0.00 -- 8.0 81.0
02/27/2019 19:00 1290.68 42.0 0.00 -- 8.3 76.0
02/27/2019 18:00 1290.69 43.0 0.00 -- 8.6 73.0
02/27/2019 17:00 1290.69 43.0 0.00 -- 9.2 64.0
02/27/2019 16:00 1290.69 43.0 0.00 -- 10.6 51.0
02/27/2019 15:00 1290.69 43.0 0.00 -- 11.9 32.0
02/27/2019 14:00 1290.70 43.0 0.00 -- 11.2 27.0
02/27/2019 13:00 1290.69 42.0 0.00 -- 9.8 29.0
02/27/2019 12:00 1290.70 43.0 0.00 -- 8.0 30.0
02/27/2019 11:00 1290.71 43.0 0.00 -- 5.5 31.0
02/27/2019 10:00 1290.70 43.0 0.00 -- 3.7 30.0
02/27/2019 09:00 1290.71 43.0 0.00 -- 1.0 37.0
02/27/2019 08:00 1290.71 43.0 0.00 -- -1.4 43.0
02/27/2019 07:00 1290.71 44.0 0.00 -- -2.6 53.0
02/27/2019 06:00 1290.71 44.0 0.00 -- -2.0 51.0
02/27/2019 05:00 1290.72 44.0 0.00 -- -1.5 51.0
02/27/2019 04:00 1290.72 44.0 0.00 -- 0.2 49.0
02/27/2019 03:00 1290.72 44.0 0.00 -- 1.1 46.0
02/27/2019 02:00 1290.71 44.0 0.00 -- 2.2 43.0
02/27/2019 01:00 1290.72 44.0 0.00 -- 3.2 47.0
02/27/2019 00:00 1290.73 44.0 0.00 0.00 4.4 50.0
02/26/2019 23:00 1290.72 45.0 0.00 -- 6.2 49.0
02/26/2019 22:00 1290.73 44.0 0.00 -- 6.5 48.0
02/26/2019 21:00 1290.73 44.0 0.00 -- 7.7 48.0
02/26/2019 20:00 1290.73 45.0 0.00 -- 8.8 44.0
02/26/2019 19:00 1290.73 45.0 0.00 -- 9.4 39.0
02/26/2019 18:00 1290.73 -- 0.00 -- 9.9 40.0
02/26/2019 17:00 1290.73 -- 0.00 -- 10.4 40.9
02/26/2019 16:00 1290.73 -- 0.00 -- 10.9 41.9
02/26/2019 15:00 1290.73 -- 0.00 -- 11.4 42.8
02/26/2019 14:00 1290.74 -- 0.00 -- 11.9 43.8
02/26/2019 13:00 1290.74 -- 0.00 -- 12.4 44.8
02/26/2019 12:00 1290.74 -- 0.00 -- 12.9 45.7
02/26/2019 11:00 1290.74 -- 0.00 -- 13.4 46.7
02/26/2019 10:00 1290.74 -- 0.00 -- 13.9 47.7
02/26/2019 09:00 1290.74 -- 0.00 -- 14.4 48.6
02/26/2019 08:00 1290.74 -- 0.00 -- 14.9 49.6
02/26/2019 07:00 1290.74 -- 0.00 -- 15.4 50.5
02/26/2019 06:00 1290.74 -- 0.00 -- 15.9 51.5
02/26/2019 05:00 1290.75 -- 0.00 -- 16.3 52.5
02/26/2019 04:00 1290.75 -- 0.00 -- 16.8 53.4
02/26/2019 03:00 1290.75 -- 0.00 -- 17.3 54.4
02/26/2019 02:00 1290.75 -- 0.00 -- 17.8 55.3
02/26/2019 01:00 1290.75 -- 0.00 -- 18.3 56.3
02/26/2019 00:00 1290.75 -- 0.00 0.00 18.8 57.3
02/25/2019 23:00 1290.75 -- 0.00 -- 19.3 58.2
02/25/2019 22:00 1290.75 -- 0.00 -- 19.8 59.2
02/25/2019 21:00 1290.76 -- 0.00 -- 20.3 60.2
02/25/2019 20:00 1290.76 -- 0.00 -- 20.8 61.1
02/25/2019 19:00 1290.76 -- 0.00 -- 21.3 62.1
02/25/2019 18:00 1290.76 -- 0.00 -- 21.8 63.0
02/25/2019 17:00 1290.76 -- 0.00 -- 22.3 64.0
02/25/2019 16:00 1290.76 46.0 0.00 -- 21.2 87.0
02/25/2019 15:00 1290.76 45.0 0.00 -- 21.7 88.0
02/25/2019 14:00 1290.74 46.0 0.00 -- 22.0 81.0
02/25/2019 13:00 1290.75 46.0 0.00 -- 22.5 70.0
02/25/2019 12:00 1290.77 46.0 0.00 -- 23.3 63.0
02/25/2019 11:00 1290.74 47.0 0.00 -- 22.3 82.0
02/25/2019 10:00 1290.74 45.0 0.00 -- 24.6 54.0
02/25/2019 09:00 1290.75 45.0 0.00 -- 25.2 51.0
02/25/2019 08:00 1290.73 45.0 0.00 -- 25.0 49.0
02/25/2019 07:00 1290.73 46.0 0.00 -- 25.1 53.0
02/25/2019 06:00 1290.75 45.0 0.00 -- 25.3 62.0
02/25/2019 05:00 1290.74 45.0 0.00 -- 25.9 70.0
02/25/2019 04:00 1290.74 45.0 0.00 -- 27.4 62.0
02/25/2019 03:00 1290.75 44.0 0.00 -- 28.5 56.0
02/25/2019 02:00 1290.74 46.0 0.00 -- 30.0 63.0
02/25/2019 01:00 1290.73 45.0 0.00 -- 30.5 68.0
02/25/2019 00:00 1290.74 46.0 0.00 0.00 31.4 67.0
02/24/2019 23:00 1290.74 44.0 0.01 -- 30.9 84.0
02/24/2019 22:00 1290.72 44.0 0.02 -- 32.0 99.0
02/24/2019 21:00 1290.73 45.0 0.01 -- 31.9 100.0
02/24/2019 20:00 1290.72 44.0 0.00 -- 30.3 100.0
02/24/2019 19:00 1290.72 44.0 0.02 -- 30.4 100.0
02/24/2019 18:00 1290.73 44.0 0.02 -- 30.5 100.0
02/24/2019 17:00 1290.72 44.0 0.02 -- 30.8 100.0
02/24/2019 16:00 1290.72 44.0 0.04 -- 31.2 100.0
02/24/2019 15:00 1290.72 44.0 0.04 -- 30.8 100.0
02/24/2019 14:00 1290.72 44.0 0.05 -- 30.7 100.0
02/24/2019 13:00 1290.71 44.0 0.03 -- 30.5 100.0
02/24/2019 12:00 1290.70 43.0 0.00 -- 30.4 100.0
02/24/2019 11:00 1290.73 43.0 0.00 -- 29.7 100.0
02/24/2019 10:00 1290.72 43.0 0.00 -- 29.8 100.0
02/24/2019 09:00 1290.70 43.0 0.00 -- 29.0 99.0
02/24/2019 08:00 1290.70 43.0 0.00 -- 27.9 99.0
02/24/2019 07:00 1290.69 43.0 0.00 -- 26.7 99.0
02/24/2019 06:00 1290.70 43.0 0.00 -- 24.8 99.0
02/24/2019 05:00 1290.70 43.0 0.00 -- 24.9 94.0
02/24/2019 04:00 1290.70 43.0 0.00 -- 25.8 79.0
02/24/2019 03:00 1290.70 43.0 0.00 -- 26.7 62.0
02/24/2019 02:00 1290.70 43.0 0.00 -- 25.2 71.0
02/24/2019 01:00 1290.70 43.0 0.00 -- 24.2 75.0
02/24/2019 00:00 1290.70 43.0 0.00 0.26 23.7 72.0
02/23/2019 23:00 1290.70 43.0 0.00 -- 23.0 72.0
02/23/2019 22:00 1290.71 43.0 0.00 -- 22.1 75.0
02/23/2019 21:00 1290.70 43.0 0.00 -- 22.0 75.0
02/23/2019 20:00 1290.71 43.0 0.00 -- 22.3 73.0
02/23/2019 19:00 1290.71 44.0 0.00 -- 24.0 69.0
02/23/2019 18:00 1290.71 43.0 0.00 -- 25.9 61.0
02/23/2019 17:00 1290.71 44.0 0.00 -- 31.0 52.0
02/23/2019 16:00 1290.71 44.0 0.01 -- 33.3 41.0
02/23/2019 15:00 1290.72 44.0 0.00 -- 35.2 37.0
02/23/2019 14:00 1290.70 44.0 0.01 -- 35.9 35.0
02/23/2019 13:00 1290.72 44.0 0.00 -- 34.0 38.0
02/23/2019 12:00 1290.72 43.0 0.00 -- 32.2 41.0
02/23/2019 11:00 1290.72 44.0 0.00 -- 30.0 44.0
02/23/2019 10:00 1290.72 43.0 0.00 -- 27.1 50.0
02/23/2019 09:00 1290.72 44.0 0.00 -- 24.7 57.0
02/23/2019 08:00 1290.72 44.0 0.00 -- 17.5 81.0
02/23/2019 07:00 1290.73 44.0 0.00 -- 13.6 92.0
02/23/2019 06:00 1290.74 44.0 0.00 -- 12.4 93.0
02/23/2019 05:00 1290.73 44.0 0.00 -- 13.3 94.0
02/23/2019 04:00 1290.73 45.0 0.00 -- 14.3 93.0
02/23/2019 03:00 1290.74 45.0 0.00 -- 15.9 87.0
02/23/2019 02:00 1290.73 45.0 0.00 -- 17.9 82.0
02/23/2019 01:00 1290.73 45.0 0.00 -- 20.1 76.0
02/23/2019 00:00 1290.74 45.0 0.00 0.02 19.3 83.0
02/22/2019 23:00 1290.74 45.0 0.00 -- 19.8 84.0
02/22/2019 22:00 1290.74 45.0 0.00 -- 20.8 82.0
02/22/2019 21:00 1290.75 45.0 0.00 -- 22.5 77.0
02/22/2019 20:00 1290.74 45.0 0.00 -- 23.8 72.0
02/22/2019 19:00 1290.74 45.0 0.00 -- 25.5 70.0
02/22/2019 18:00 1290.75 45.0 0.00 -- 28.0 61.0
02/22/2019 17:00 1290.75 45.0 0.00 -- 30.7 53.0
02/22/2019 16:00 1290.75 45.0 0.00 -- 32.0 50.0
02/22/2019 15:00 1290.76 46.0 0.00 -- 32.9 49.0
02/22/2019 14:00 1290.77 46.0 0.00 -- 34.1 47.0
02/22/2019 13:00 1290.75 45.0 0.00 -- 33.7 50.0
02/22/2019 12:00 1290.75 45.0 0.00 -- 31.4 54.0
02/22/2019 11:00 1290.74 45.0 0.00 -- 30.6 54.0
02/22/2019 10:00 1290.76 46.0 0.00 -- 29.5 59.0
02/22/2019 09:00 1290.76 46.0 0.00 -- 29.3 61.0
02/22/2019 08:00 1290.77 46.0 0.00 -- 28.5 63.0
02/22/2019 07:00 1290.76 46.0 0.00 -- 28.2 63.0
02/22/2019 06:00 1290.77 46.0 0.00 -- 28.6 64.0
02/22/2019 05:00 1290.76 46.0 0.00 -- 28.8 64.0
02/22/2019 04:00 1290.77 46.0 0.00 -- 29.4 63.0
02/22/2019 03:00 1290.77 46.0 0.00 -- 30.1 62.0
02/22/2019 02:00 1290.77 47.0 0.00 -- 30.6 57.0
02/22/2019 01:00 1290.79 47.0 0.00 -- 30.8 57.0
02/22/2019 00:00 1290.78 46.0 0.00 0.00 31.6 52.0
02/21/2019 23:00 1290.79 47.0 0.00 -- 31.7 54.0
02/21/2019 22:00 1290.78 47.0 0.00 -- 32.5 55.0
02/21/2019 21:00 1290.77 47.0 0.00 -- 32.9 58.0
02/21/2019 20:00 1290.78 47.0 0.00 -- 33.1 63.0
02/21/2019 19:00 1290.78 47.0 0.00 -- 33.5 61.0
02/21/2019 18:00 1290.78 47.0 0.00 -- 33.8 63.0
02/21/2019 17:00 1290.79 47.0 0.00 -- 34.5 62.0
02/21/2019 16:00 1290.79 47.0 0.00 -- 35.4 60.0
02/21/2019 15:00 1290.81 48.0 0.00 -- 36.3 63.0
02/21/2019 14:00 1290.79 48.0 0.00 -- 36.6 68.0
02/21/2019 13:00 1290.80 47.0 0.00 -- 37.0 73.0
02/21/2019 12:00 1290.78 48.0 0.00 -- 33.4 88.0
02/21/2019 11:00 1290.80 47.0 0.00 -- 30.8 92.0
02/21/2019 10:00 1290.80 47.0 0.00 -- 25.8 98.0
02/21/2019 09:00 1290.79 48.0 0.00 -- 21.7 99.0
02/21/2019 08:00 1290.80 48.0 0.00 -- 19.8 99.0
02/21/2019 07:00 1290.81 48.0 0.00 -- 19.1 99.0
02/21/2019 06:00 1290.80 48.0 0.00 -- 18.9 99.0
02/21/2019 05:00 1290.81 48.0 0.00 -- 19.1 99.0
02/21/2019 04:00 1290.81 48.0 0.00 -- 19.5 99.0
02/21/2019 03:00 1290.81 48.0 0.00 -- 19.5 99.0
02/21/2019 02:00 1290.80 48.0 0.00 -- 17.3 98.0
02/21/2019 01:00 1290.80 48.0 0.00 -- 16.8 97.0
02/21/2019 00:00 1290.80 48.0 0.00 0.00 17.1 95.0
02/20/2019 23:00 1290.80 48.0 0.00 -- 17.2 94.0
02/20/2019 22:00 1290.80 48.0 0.00 -- 17.4 93.0
02/20/2019 21:00 1290.80 48.0 0.00 -- 18.2 91.0
02/20/2019 20:00 1290.81 48.0 0.00 -- 19.7 62.0
02/20/2019 19:00 1290.80 48.0 0.00 -- 20.4 56.0
02/20/2019 18:00 1290.81 48.0 0.00 -- 20.7 47.0
02/20/2019 17:00 1290.80 48.0 0.00 -- 20.9 47.0
02/20/2019 16:00 1290.81 48.0 0.00 -- 21.7 37.0
02/20/2019 15:00 1290.81 48.0 0.00 -- 21.4 41.0
02/20/2019 14:00 1290.82 48.0 0.00 -- 20.3 42.0
02/20/2019 13:00 1290.82 49.0 0.00 -- 19.6 45.0
02/20/2019 12:00 1290.82 49.0 0.00 -- 21.0 49.0
02/20/2019 11:00 1290.82 49.0 0.00 -- 19.5 41.0
02/20/2019 10:00 1290.82 49.0 0.00 -- 17.7 48.0
02/20/2019 09:00 1290.82 49.0 0.00 -- 13.5 59.0
02/20/2019 08:00 1290.82 49.0 0.00 -- 8.7 65.0
02/20/2019 07:00 1290.83 49.0 0.00 -- 3.0 83.0
02/20/2019 06:00 1290.83 49.0 0.00 -- 1.4 81.0
02/20/2019 05:00 1290.83 50.0 0.00 -- 0.5 81.0
02/20/2019 04:00 1290.83 50.0 0.00 -- 1.1 80.0
02/20/2019 03:00 1290.84 50.0 0.00 -- 1.9 76.0
02/20/2019 02:00 1290.84 50.0 0.00 -- 3.2 72.0
02/20/2019 01:00 1290.85 50.0 0.00 -- 5.7 66.0
02/20/2019 00:00 1290.85 50.0 0.00 0.00 10.8 56.0
02/19/2019 23:00 1290.85 50.0 0.00 -- 9.7 61.0
02/19/2019 22:00 1290.86 51.0 0.00 -- 9.3 61.0
02/19/2019 21:00 1290.86 51.0 0.00 -- 12.4 54.0
02/19/2019 20:00 1290.86 50.0 0.00 -- 6.7 62.0
02/19/2019 19:00 1290.87 51.0 0.00 -- 9.9 58.0
02/19/2019 18:00 1290.87 51.0 0.00 -- 14.5 49.0
02/19/2019 17:00 1290.87 52.0 0.00 -- 17.5 42.0
02/19/2019 16:00 1290.87 51.0 0.00 -- 18.6 40.0
02/19/2019 15:00 1290.91 52.0 0.00 -- 19.3 31.0
02/19/2019 14:00 1290.87 52.0 0.00 -- 20.8 32.0
02/19/2019 13:00 1290.87 52.0 0.00 -- 20.0 36.0
02/19/2019 12:00 1290.87 52.0 0.00 -- 18.6 39.0
02/19/2019 11:00 1290.86 51.0 0.00 -- 14.5 47.0
02/19/2019 10:00 1290.88 52.0 0.00 -- 10.8 53.0
02/19/2019 09:00 1290.89 52.0 0.00 -- 8.2 61.0
02/19/2019 08:00 1290.90 52.0 0.00 -- 5.8 66.0
02/19/2019 07:00 1290.90 52.0 0.00 -- 4.2 71.0
02/19/2019 06:00 1290.90 53.0 0.00 -- 5.0 70.0
02/19/2019 05:00 1290.90 53.0 0.00 -- 7.0 67.0
02/19/2019 04:00 1290.91 53.0 0.00 -- 6.3 67.0
02/19/2019 03:00 1290.91 53.0 0.00 -- 7.7 66.0
02/19/2019 02:00 1290.91 53.0 0.00 -- 7.2 67.0
02/19/2019 01:00 1290.92 53.0 0.00 -- 7.4 67.0
02/19/2019 00:00 1290.93 54.0 0.00 0.00 8.2 65.0
02/18/2019 23:00 1290.93 54.0 0.00 -- 7.7 61.0
02/18/2019 22:00 1290.93 53.0 0.00 -- 10.5 52.0
02/18/2019 21:00 1290.93 54.0 0.00 -- 12.7 53.0
02/18/2019 20:00 1290.95 55.0 0.00 -- 15.0 63.0
02/18/2019 19:00 1290.95 54.0 0.00 -- 18.2 78.0
02/18/2019 18:00 1290.94 55.0 0.00 -- 20.0 79.0
02/18/2019 17:00 1290.95 55.0 0.00 -- 20.3 76.0
02/18/2019 16:00 1290.94 55.0 0.00 -- 22.9 77.0
02/18/2019 15:00 1290.95 56.0 0.00 -- 23.7 81.0
02/18/2019 14:00 1290.95 55.0 0.00 -- 22.9 89.0
02/18/2019 13:00 1290.96 55.0 0.00 -- 21.6 86.0
02/18/2019 12:00 1290.96 55.0 0.00 -- 20.5 92.0
02/18/2019 11:00 1290.96 55.0 0.00 -- 20.6 92.0
02/18/2019 10:00 1290.96 56.0 0.00 -- 20.2 96.0
02/18/2019 09:00 1290.96 56.0 0.00 -- 19.3 92.0
02/18/2019 08:00 1290.97 56.0 0.00 -- 18.8 84.0
02/18/2019 07:00 1290.97 56.0 0.00 -- 18.5 82.0
02/18/2019 06:00 1290.97 56.0 0.00 -- 18.5 72.0
02/18/2019 05:00 1290.98 56.0 0.00 -- 18.8 64.0
02/18/2019 04:00 1290.98 56.0 0.00 -- 19.4 57.0
02/18/2019 03:00 1290.98 57.0 0.00 -- 20.4 54.0
02/18/2019 02:00 1290.99 57.0 0.00 -- 20.9 49.0
02/18/2019 01:00 1290.99 57.0 0.00 -- 20.8 51.0
02/18/2019 00:00 1290.99 57.0 0.00 0.00 20.6 54.0
02/17/2019 23:00 1290.99 58.0 0.00 -- 20.7 53.0
02/17/2019 22:00 1290.99 57.0 0.00 -- 20.5 48.0
02/17/2019 21:00 1291.00 58.0 0.00 -- 20.2 53.0
02/17/2019 20:00 1291.00 58.0 0.00 -- 20.0 53.0
02/17/2019 19:00 1291.01 58.0 0.00 -- 19.7 52.0
02/17/2019 18:00 1291.01 58.0 0.00 -- 22.0 49.0
02/17/2019 17:00 1291.01 58.0 0.00 -- 24.6 36.0
02/17/2019 16:00 1291.02 59.0 0.00 -- 26.4 28.0
02/17/2019 15:00 1291.03 58.0 0.00 -- 26.8 25.0
02/17/2019 14:00 1291.03 59.0 0.00 -- 28.0 26.0
02/17/2019 13:00 1291.02 60.0 0.00 -- 25.8 28.0
02/17/2019 12:00 1291.01 59.0 0.00 -- 22.6 33.0
02/17/2019 11:00 1291.04 59.0 0.00 -- 19.6 38.0
02/17/2019 10:00 1291.05 59.0 0.00 -- 16.7 46.0
02/17/2019 09:00 1291.04 60.0 0.00 -- 13.6 61.0
02/17/2019 08:00 1291.04 60.0 0.00 -- 11.4 64.0
02/17/2019 07:00 1291.06 -- 0.00 -- 10.2 70.0
02/17/2019 06:00 1291.05 60.0 0.00 -- 9.9 72.0
02/17/2019 05:00 1291.06 61.0 0.00 -- 11.5 70.0
02/17/2019 04:00 1291.06 61.0 0.00 -- 11.6 72.0
02/17/2019 03:00 1291.06 61.0 0.00 -- 13.4 66.0
02/17/2019 02:00 1291.07 61.0 0.00 -- 14.2 64.0
02/17/2019 01:00 1291.08 61.0 0.00 -- 14.9 65.0
02/17/2019 00:00 1291.08 61.0 0.00 0.00 15.7 63.0
02/16/2019 23:00 1291.09 62.0 0.00 -- 17.3 59.0
02/16/2019 22:00 1291.08 62.0 0.00 -- 19.6 59.0
02/16/2019 21:00 1291.09 62.0 0.00 -- 21.6 56.0
02/16/2019 20:00 1291.10 63.0 0.00 -- 23.6 59.0
02/16/2019 19:00 1291.09 63.0 0.00 -- 25.2 55.0
02/16/2019 18:00 1291.11 63.0 0.00 -- 26.3 55.0
02/16/2019 17:00 1291.11 63.0 0.00 -- 28.0 50.0
02/16/2019 16:00 1291.12 63.0 0.00 -- 29.2 51.0
02/16/2019 15:00 1291.11 64.0 0.00 -- 29.7 53.0
02/16/2019 14:00 1291.11 63.0 0.00 -- 30.1 52.0
02/16/2019 13:00 1291.12 63.0 0.00 -- 28.4 53.0
02/16/2019 12:00 1291.12 64.0 0.00 -- 28.1 55.0
02/16/2019 11:00 1291.12 64.0 0.00 -- 27.8 53.0
02/16/2019 10:00 1291.14 64.0 0.00 -- 26.6 56.0
02/16/2019 09:00 1291.14 65.0 0.00 -- 26.1 58.0
02/16/2019 08:00 1291.14 65.0 0.00 -- 25.2 58.0
02/16/2019 07:00 1291.15 65.0 0.00 -- 25.0 65.0
02/16/2019 06:00 1291.14 65.0 0.00 -- 25.3 67.0
02/16/2019 05:00 1291.15 65.0 0.00 -- 25.1 66.0
02/16/2019 04:00 1291.16 66.0 0.00 -- 25.3 63.0
02/16/2019 03:00 1291.16 66.0 0.00 -- 26.1 61.0
02/16/2019 02:00 1291.16 66.0 0.00 -- 27.9 57.0
02/16/2019 01:00 1291.17 66.0 0.00 -- 30.2 62.0
02/16/2019 00:00 1291.18 67.0 0.00 0.00 32.1 63.0
02/15/2019 23:00 1291.19 67.0 0.00 -- 32.0 74.0
02/15/2019 22:00 1291.20 67.0 0.00 -- 35.1 84.0
02/15/2019 21:00 1291.20 67.0 0.00 -- 37.5 100.0
02/15/2019 20:00 1291.19 67.0 0.00 -- 33.6 100.0
02/15/2019 19:00 1291.20 68.0 0.00 -- 27.9 100.0
02/15/2019 18:00 1291.20 68.0 0.00 -- 29.4 100.0
02/15/2019 17:00 1291.21 68.0 0.00 -- 30.0 100.0
02/15/2019 16:00 1291.21 68.0 0.00 -- 30.0 100.0
02/15/2019 15:00 1291.22 69.0 0.00 -- 29.8 100.0
02/15/2019 14:00 1291.23 69.0 0.00 -- 28.4 99.0
02/15/2019 13:00 1291.23 69.0 0.00 -- 27.1 99.0
02/15/2019 12:00 1291.23 70.0 0.00 -- 28.9 99.0
02/15/2019 11:00 1291.24 70.0 0.00 -- 27.3 99.0
02/15/2019 10:00 1291.25 70.0 0.00 -- 26.7 99.0
02/15/2019 09:00 1291.26 71.0 0.00 -- 25.7 94.0
02/15/2019 08:00 1291.26 71.0 0.00 -- 24.8 95.0
02/15/2019 07:00 1291.26 71.0 0.00 -- 22.0 87.0
02/15/2019 06:00 1291.27 71.0 0.00 -- 20.7 82.0
02/15/2019 05:00 1291.28 71.0 0.00 -- 18.5 86.0
02/15/2019 04:00 1291.28 72.0 0.00 -- 17.9 87.0
02/15/2019 03:00 1291.28 72.0 0.00 -- 17.9 84.0
02/15/2019 02:00 1291.30 72.0 0.00 -- 18.2 84.0
02/15/2019 01:00 1291.30 73.0 0.00 -- 17.9 83.0
02/15/2019 00:00 1291.31 73.0 0.00 0.00 17.6 83.0
02/14/2019 23:00 1291.31 73.0 0.00 -- 17.5 85.0
02/14/2019 22:00 1291.32 74.0 0.00 -- 17.2 88.0
02/14/2019 21:00 1291.32 74.0 0.00 -- 18.3 80.0
02/14/2019 20:00 1291.33 75.0 0.00 -- 20.1 77.0
02/14/2019 19:00 1291.34 74.0 0.00 -- 21.8 68.0
02/14/2019 18:00 1291.34 75.0 0.00 -- 24.9 60.0
02/14/2019 17:00 1291.34 75.0 0.00 -- 27.1 53.0
02/14/2019 16:00 1291.35 76.0 0.00 -- 28.0 51.0
02/14/2019 15:00 1291.36 76.0 0.00 -- 29.4 47.0
02/14/2019 14:00 1291.36 76.0 0.00 -- 29.4 46.0
02/14/2019 13:00 1291.37 75.0 0.00 -- 28.7 48.0
02/14/2019 12:00 1291.39 79.0 0.00 -- 26.0 53.0
02/14/2019 11:00 1291.39 77.0 0.00 -- 24.9 59.0
02/14/2019 10:00 1291.41 78.0 0.00 -- 23.0 62.0
02/14/2019 09:00 1291.40 77.0 0.00 -- 21.5 67.0
02/14/2019 08:00 1291.42 79.0 0.00 -- 20.7 70.0
02/14/2019 07:00 1291.41 79.0 0.00 -- 19.6 87.0
02/14/2019 06:00 1291.42 79.0 0.00 -- 19.8 86.0
02/14/2019 05:00 1291.42 79.0 0.00 -- 20.0 81.0
02/14/2019 04:00 1291.42 79.0 0.00 -- 20.4 76.0
02/14/2019 03:00 1291.44 80.0 0.00 -- 20.9 68.0
02/14/2019 02:00 1291.42 80.0 0.00 -- 21.7 65.0
02/14/2019 01:00 1291.46 81.0 0.00 -- 21.3 65.0
02/14/2019 00:00 1291.46 81.0 0.00 0.00 21.5 67.0
02/13/2019 23:00 1291.47 81.0 0.00 -- 21.9 58.0
02/13/2019 22:00 1291.46 82.0 0.00 -- 22.5 57.0
02/13/2019 21:00 1291.48 83.0 0.00 -- 23.3 72.0
02/13/2019 20:00 1291.48 83.0 0.00 -- 24.6 70.0
02/13/2019 19:00 1291.49 83.0 0.00 -- 25.5 67.0
02/13/2019 18:00 1291.49 83.0 0.00 -- 26.2 62.0
02/13/2019 17:00 1291.50 83.0 0.00 -- 27.4 60.0
02/13/2019 16:00 1291.50 84.0 0.00 -- 28.6 80.0
02/13/2019 15:00 1291.51 84.0 0.01 -- 29.7 74.0
02/13/2019 14:00 1291.51 85.0 0.01 -- 30.6 76.0
02/13/2019 13:00 1291.52 85.0 0.00 -- 30.9 80.0
02/13/2019 12:00 1291.52 85.0 0.00 -- 29.5 92.0
02/13/2019 11:00 1291.53 85.0 0.00 -- 27.4 99.0
02/13/2019 10:00 1291.54 85.0 0.00 -- 25.0 99.0
02/13/2019 09:00 1291.55 86.0 0.00 -- 24.6 99.0
02/13/2019 08:00 1291.54 87.0 0.00 -- 24.3 99.0
02/13/2019 07:00 1291.56 -- 0.00 -- 23.6 99.0
02/13/2019 06:00 1291.56 87.0 0.00 -- 23.4 99.0
02/13/2019 05:00 1291.56 88.0 0.00 -- 21.8 99.0
02/13/2019 04:00 1291.57 88.0 0.00 -- 22.3 99.0
02/13/2019 03:00 1291.58 88.0 0.00 -- 21.1 99.0
02/13/2019 02:00 1291.57 87.0 0.00 -- 18.6 98.0
02/13/2019 01:00 1291.57 88.0 0.00 -- 16.8 97.0
02/13/2019 00:00 1291.59 88.0 0.00 0.02 16.0 95.0
02/12/2019 23:00 1291.58 89.0 0.00 -- 14.9 92.0
02/12/2019 22:00 1291.59 89.0 0.00 -- 14.7 91.0
02/12/2019 21:00 1291.59 89.0 0.00 -- 14.1 91.0
02/12/2019 20:00 1291.59 89.0 0.00 -- 13.4 90.0
02/12/2019 19:00 1291.59 89.0 0.00 -- 12.5 88.0
02/12/2019 18:00 1291.58 89.0 0.00 -- 12.4 89.0
02/12/2019 17:00 1291.59 89.0 0.00 -- 12.6 87.0
02/12/2019 16:00 1291.58 89.0 0.00 -- 12.7 84.0
02/12/2019 15:00 1291.59 88.0 0.00 -- 13.3 74.0
02/12/2019 14:00 1291.59 89.0 0.00 -- 15.8 46.0
02/12/2019 13:00 1291.60 89.0 0.00 -- 15.5 41.0
02/12/2019 12:00 1291.60 89.0 0.00 -- 15.9 38.0
02/12/2019 11:00 1291.59 89.0 0.00 -- 13.6 36.0
02/12/2019 10:00 1291.77 10.0 0.00 -- 13.0 35.0
02/12/2019 09:00 1291.76 9.0 0.00 -- 12.6 40.0
02/12/2019 08:00 1291.76 9.0 0.00 -- 7.2 56.0
02/12/2019 07:00 1291.75 9.0 0.00 -- 5.1 60.0
02/12/2019 06:00 1291.75 9.0 0.00 -- 4.1 61.0
02/12/2019 05:00 1291.75 9.0 0.00 -- 6.0 52.0
02/12/2019 04:00 1291.74 9.0 0.00 -- 6.6 49.0
02/12/2019 03:00 1291.74 9.0 0.00 -- 7.1 46.0
02/12/2019 02:00 1291.74 9.0 0.00 -- 8.0 43.0
02/12/2019 01:00 1291.73 9.0 0.00 -- 9.2 37.0
02/12/2019 00:00 1291.72 8.0 0.00 0.00 10.2 41.0
02/11/2019 23:00 1291.72 8.0 0.00 -- 11.8 41.0
02/11/2019 22:00 1291.72 8.0 0.00 -- 14.1 41.0
02/11/2019 21:00 1291.71 8.0 0.00 -- 16.3 34.0
02/11/2019 20:00 1291.69 8.0 0.00 -- 17.7 33.0
02/11/2019 19:00 1291.69 7.0 0.00 -- 19.5 34.0
02/11/2019 18:00 1291.68 7.0 0.00 -- 20.3 42.0
02/11/2019 17:00 1291.67 7.0 0.00 -- 23.0 46.0
02/11/2019 16:00 1291.67 7.0 0.00 -- 24.1 36.0
02/11/2019 15:00 1291.66 7.0 0.00 -- 25.6 36.0
02/11/2019 14:00 1291.66 6.0 0.00 -- 25.7 36.0
02/11/2019 13:00 1291.63 6.0 0.00 -- 24.0 36.0
02/11/2019 12:00 1291.61 5.0 0.00 -- 21.6 39.0
02/11/2019 11:00 1291.62 6.0 0.00 -- 19.4 44.0
02/11/2019 10:00 1291.63 6.0 0.02 -- 17.8 45.0
02/11/2019 09:00 1291.47 5.0 0.00 -- 16.4 58.0
02/11/2019 08:00 1291.47 82.0 0.00 -- 15.8 64.0
02/11/2019 07:00 1291.47 82.0 0.00 -- 16.4 62.0
02/11/2019 06:00 1291.48 83.0 0.00 -- 16.9 58.0
02/11/2019 05:00 1291.48 83.0 0.00 -- 17.2 59.0
02/11/2019 04:00 1291.48 83.0 0.00 -- 17.3 56.0
02/11/2019 03:00 1291.49 83.0 0.00 -- 17.7 57.0
02/11/2019 02:00 1291.49 83.0 0.00 -- 17.7 57.0
02/11/2019 01:00 1291.50 83.0 0.00 -- 17.9 57.0
02/11/2019 00:00 1291.50 84.0 0.00 0.02 18.4 57.0
02/10/2019 23:00 1291.50 84.0 0.00 -- 18.5 62.0
02/10/2019 22:00 1291.50 84.0 0.00 -- 17.4 65.0
02/10/2019 21:00 1291.51 84.0 0.00 -- 18.2 63.0
02/10/2019 20:00 1291.51 84.0 0.00 -- 19.3 56.0
02/10/2019 19:00 1291.52 85.0 0.00 -- 20.2 53.0
02/10/2019 18:00 1291.52 35.0 0.00 -- 21.3 49.0
02/10/2019 17:00 1291.53 85.0 0.00 -- 22.4 43.0
02/10/2019 16:00 1291.53 86.0 0.00 -- 23.5 40.0
02/10/2019 15:00 1291.54 86.0 0.00 -- 24.5 38.0
02/10/2019 14:00 1291.51 86.0 0.00 -- 23.8 34.0
02/10/2019 13:00 1291.54 86.0 0.00 -- 23.3 35.0
02/10/2019 12:00 1291.52 86.0 0.00 -- 21.3 36.0
02/10/2019 11:00 1291.54 85.0 0.00 -- 18.8 38.0
02/10/2019 10:00 1291.55 85.0 0.00 -- 16.6 38.0
02/10/2019 09:00 1291.54 86.0 0.00 -- 14.6 49.0
02/10/2019 08:00 1291.54 86.0 0.00 -- 12.2 54.0
02/10/2019 07:00 1291.55 85.0 0.00 -- 7.7 72.0
02/10/2019 06:00 1291.55 86.0 0.00 -- 9.3 66.0
02/10/2019 05:00 1291.55 87.0 0.00 -- 11.3 57.0
02/10/2019 04:00 1291.56 86.0 0.00 -- 13.3 49.0
02/10/2019 03:00 1291.56 87.0 0.00 -- 13.3 50.0
02/10/2019 02:00 1291.54 87.0 0.00 -- 13.4 47.0
02/10/2019 01:00 1291.56 87.0 0.00 -- 13.7 48.0
02/10/2019 00:00 1291.56 87.0 0.00 0.00 14.8 42.0
02/09/2019 23:00 1291.55 87.0 0.00 -- 15.5 41.0
02/09/2019 22:00 1291.57 87.0 0.00 -- 16.0 38.0
02/09/2019 21:00 1291.56 88.0 0.00 -- 16.6 40.0
02/09/2019 20:00 1291.56 88.0 0.00 -- 16.8 39.0
02/09/2019 19:00 1291.56 87.0 0.00 -- 18.5 32.0
02/09/2019 18:00 1291.55 87.0 0.00 -- 19.7 33.0
02/09/2019 17:00 1291.55 87.0 0.00 -- 20.7 31.0
02/09/2019 16:00 1291.56 87.0 0.00 -- 21.4 30.0
02/09/2019 15:00 1291.54 87.0 0.00 -- 22.0 30.0
02/09/2019 14:00 1291.56 88.0 0.00 -- 22.7 30.0
02/09/2019 13:00 1291.56 86.0 0.00 -- 21.3 33.0
02/09/2019 12:00 1291.54 86.0 0.00 -- 19.7 37.0
02/09/2019 11:00 1291.54 87.0 0.00 -- 18.0 40.0
02/09/2019 10:00 1291.58 86.0 0.00 -- 16.2 44.0
02/09/2019 09:00 1291.55 86.0 0.00 -- 14.7 50.0
02/09/2019 08:00 1291.53 85.0 0.00 -- 14.1 46.0
02/09/2019 07:00 1291.53 86.0 0.00 -- 14.0 47.0
02/09/2019 06:00 1291.53 85.0 0.00 -- 14.5 45.0
02/09/2019 05:00 1291.51 86.0 0.00 -- 14.9 42.0
02/09/2019 04:00 1291.52 85.0 0.00 -- 15.2 45.0
02/09/2019 03:00 1291.53 85.0 0.00 -- 16.5 45.0
02/09/2019 02:00 1291.52 86.0 0.00 -- 15.6 75.0
02/09/2019 01:00 1291.52 86.0 0.00 -- 18.4 47.0
02/09/2019 00:00 1291.46 83.0 0.00 0.00 19.4 51.0
02/08/2019 23:00 1291.38 80.0 0.00 -- 19.9 51.0
02/08/2019 22:00 1291.47 78.0 0.00 -- 20.5 46.0
02/08/2019 21:00 1291.45 81.0 0.00 -- 21.6 49.0
02/08/2019 20:00 1291.43 80.0 0.00 -- 22.9 48.0
02/08/2019 19:00 1291.46 80.0 0.00 -- 24.6 47.0
02/08/2019 18:00 1291.45 81.0 0.00 -- 26.8 45.0
02/08/2019 17:00 1291.46 81.0 0.00 -- 31.3 44.0
02/08/2019 16:00 1291.46 81.0 0.00 -- 35.4 50.0
02/08/2019 15:00 1291.44 80.0 0.00 -- 38.7 55.0
02/08/2019 14:00 1291.46 80.0 0.00 -- 40.2 67.0
02/08/2019 13:00 1291.42 80.0 0.02 -- 38.6 95.0
02/08/2019 12:00 1291.40 79.0 0.01 -- 36.5 100.0
02/08/2019 11:00 1291.40 78.0 0.01 -- 34.7 100.0
02/08/2019 10:00 1291.40 78.0 0.03 -- 33.0 100.0
02/08/2019 09:00 1291.38 79.0 0.00 -- 31.4 100.0
02/08/2019 08:00 1291.37 77.0 0.00 -- 30.6 100.0
02/08/2019 07:00 1291.37 77.0 0.00 -- 30.8 100.0
02/08/2019 06:00 1291.39 77.0 0.00 -- 30.2 100.0
02/08/2019 05:00 1291.38 77.0 0.00 -- 30.1 100.0
02/08/2019 04:00 1291.38 77.0 0.00 -- 30.1 100.0
02/08/2019 03:00 1291.38 77.0 0.00 -- 30.1 100.0
02/08/2019 02:00 1291.37 77.0 0.00 -- 30.0 100.0
02/08/2019 01:00 1291.36 77.0 0.00 -- 29.9 100.0
02/08/2019 00:00 1291.36 77.0 0.00 0.07 29.7 100.0
02/07/2019 23:00 1291.37 77.0 0.00 -- 29.7 100.0
02/07/2019 22:00 1291.36 76.0 0.00 -- 29.6 100.0
02/07/2019 21:00 1291.36 77.0 0.00 -- 29.7 100.0
02/07/2019 20:00 1291.37 77.0 0.00 -- 29.9 100.0
02/07/2019 19:00 1291.37 77.0 0.00 -- 29.9 100.0
02/07/2019 18:00 1291.36 76.0 0.00 -- 30.0 100.0
02/07/2019 17:00 1291.37 77.0 0.00 -- 30.2 100.0
02/07/2019 16:00 1291.37 77.0 0.00 -- 30.4 100.0
02/07/2019 15:00 1291.36 77.0 0.00 -- 30.4 100.0
02/07/2019 14:00 1291.37 76.0 0.00 -- 30.8 100.0
02/07/2019 13:00 1291.37 76.0 0.00 -- 31.1 100.0
02/07/2019 12:00 1291.36 76.0 0.00 -- 30.9 100.0
02/07/2019 11:00 1291.36 76.0 0.00 -- 30.1 100.0
02/07/2019 10:00 1291.36 77.0 0.00 -- 29.5 100.0
02/07/2019 09:00 1291.36 76.0 0.00 -- 28.8 100.0
02/07/2019 08:00 1291.36 76.0 0.00 -- 27.9 100.0
02/07/2019 07:00 1291.36 -- 0.00 -- 27.8 100.0
02/07/2019 06:00 1291.36 76.0 0.00 -- 28.0 100.0
02/07/2019 05:00 1291.36 77.0 0.00 -- 28.1 100.0
02/07/2019 04:00 1291.35 76.0 0.00 -- 27.9 100.0
02/07/2019 03:00 1291.35 76.0 0.00 -- 27.9 100.0
02/07/2019 02:00 1291.34 76.0 0.00 -- 28.0 99.0
02/07/2019 01:00 1291.36 75.0 0.00 -- 28.1 99.0
02/07/2019 00:00 1291.35 76.0 0.00 0.00 28.0 99.0
02/06/2019 23:00 1291.35 76.0 0.00 -- 28.1 99.0
02/06/2019 22:00 1291.34 76.0 0.01 -- 27.4 99.0
02/06/2019 21:00 1291.33 75.0 0.00 -- 26.7 99.0
02/06/2019 20:00 1291.32 74.0 0.00 -- 26.5 99.0
02/06/2019 19:00 1291.32 74.0 0.00 -- 27.2 92.0
02/06/2019 18:00 1291.32 74.0 0.00 -- 31.9 61.0
02/06/2019 17:00 1291.31 73.0 0.00 -- 33.0 54.0
02/06/2019 16:00 1291.30 73.0 0.00 -- 34.0 52.0
02/06/2019 15:00 1291.30 73.0 0.00 -- 34.7 52.0
02/06/2019 14:00 1291.31 73.0 0.00 -- 35.4 48.0
02/06/2019 13:00 1291.31 73.0 0.00 -- 36.1 47.0
02/06/2019 12:00 1291.26 73.0 0.00 -- 33.6 47.0
02/06/2019 11:00 1291.29 73.0 0.00 -- 31.1 50.0
02/06/2019 10:00 1291.28 72.0 0.00 -- 27.4 52.0
02/06/2019 09:00 1291.29 72.0 0.00 -- 24.3 57.0
02/06/2019 08:00 1291.28 72.0 0.00 -- 22.0 63.0
02/06/2019 07:00 1291.28 72.0 0.00 -- 21.4 65.0
02/06/2019 06:00 1291.27 71.0 0.00 -- 21.9 65.0
02/06/2019 05:00 1291.28 72.0 0.00 -- 24.1 64.0
02/06/2019 04:00 1291.26 72.0 0.00 -- 25.3 69.0
02/06/2019 03:00 1291.27 71.0 0.00 -- 25.9 69.0
02/06/2019 02:00 1291.26 71.0 0.00 -- 26.9 71.0
02/06/2019 01:00 1291.26 71.0 0.00 -- 28.2 73.0
02/06/2019 00:00 1291.25 71.0 0.00 0.01 29.9 73.0
02/05/2019 23:00 1291.24 70.0 0.00 -- 32.5 71.0
02/05/2019 22:00 1291.23 70.0 0.00 -- 33.5 69.0
02/05/2019 21:00 1291.24 70.0 0.00 -- 34.7 67.0
02/05/2019 20:00 1291.24 69.0 0.00 -- 36.6 63.0
02/05/2019 19:00 1291.23 69.0 0.00 -- 40.0 65.0
02/05/2019 18:00 1291.22 69.0 0.00 -- 42.5 62.0
02/05/2019 17:00 1291.21 68.0 0.00 -- 45.7 58.0
02/05/2019 16:00 1291.20 69.0 0.00 -- 49.4 51.0
02/05/2019 15:00 1291.21 68.0 0.00 -- 50.6 56.0
02/05/2019 14:00 1291.17 67.0 0.00 -- 52.1 55.0
02/05/2019 13:00 1291.19 67.0 0.00 -- 50.6 60.0
02/05/2019 12:00 1291.15 67.0 0.00 -- 50.4 63.0
02/05/2019 11:00 1291.17 66.0 0.00 -- 47.8 70.0
02/05/2019 10:00 1291.16 66.0 0.00 -- 43.5 78.0
02/05/2019 09:00 1291.17 66.0 0.00 -- 39.8 86.0
02/05/2019 08:00 1291.16 66.0 0.00 -- 38.8 89.0
02/05/2019 07:00 1291.18 66.0 0.01 -- 37.7 98.0
02/05/2019 06:00 1291.17 66.0 0.00 -- 38.4 85.0
02/05/2019 05:00 1291.18 67.0 0.00 -- 35.6 94.0
02/05/2019 04:00 1291.18 67.0 0.00 -- 37.7 86.0
02/05/2019 03:00 1291.18 67.0 0.00 -- 38.7 83.0
02/05/2019 02:00 1291.18 67.0 0.00 -- 39.0 81.0
02/05/2019 01:00 1291.19 67.0 0.00 -- 32.8 99.0
02/05/2019 00:00 1291.19 67.0 0.00 0.01 36.6 90.0
02/04/2019 23:00 1291.19 67.0 0.00 -- 35.7 97.0
02/04/2019 22:00 1291.20 67.0 0.00 -- 32.9 99.0
02/04/2019 21:00 1291.20 67.0 0.00 -- 34.9 99.0
02/04/2019 20:00 1291.20 68.0 0.00 -- 31.8 100.0
02/04/2019 19:00 1291.21 68.0 0.00 -- 32.2 99.0
02/04/2019 18:00 1291.21 68.0 0.00 -- 34.7 98.0
02/04/2019 17:00 1291.22 69.0 0.00 -- 40.8 78.0
02/04/2019 16:00 1291.20 69.0 0.00 -- 51.6 58.0
02/04/2019 15:00 1291.22 69.0 0.00 -- 52.4 56.0
02/04/2019 14:00 1291.22 69.0 0.00 -- 52.5 56.0
02/04/2019 13:00 1291.18 68.0 0.00 -- 51.3 54.0
02/04/2019 12:00 1291.16 68.0 0.00 -- 48.3 57.0
02/04/2019 11:00 1291.18 67.0 0.01 -- 45.1 61.0
02/04/2019 10:00 1291.24 69.0 0.07 -- 44.2 63.0
02/04/2019 09:00 1291.23 70.0 0.01 -- 38.6 75.0
02/04/2019 08:00 1291.22 69.0 0.02 -- 34.5 87.0
02/04/2019 07:00 1291.23 69.0 0.00 -- 33.6 89.0
02/04/2019 06:00 1291.24 69.0 0.01 -- 32.5 91.0
02/04/2019 05:00 1291.24 70.0 0.01 -- 33.5 87.0
02/04/2019 04:00 1291.24 70.0 0.01 -- 33.6 86.0
02/04/2019 03:00 1291.25 70.0 0.00 -- 34.1 83.0
02/04/2019 02:00 1291.27 71.0 0.02 -- 32.6 87.0
02/04/2019 01:00 1291.28 71.0 0.01 -- 34.2 79.0
02/04/2019 00:00 1291.28 71.0 0.01 0.17 33.9 80.0
02/03/2019 23:00 1291.28 72.0 0.01 -- 34.3 76.0
02/03/2019 22:00 1291.30 72.0 0.01 -- 33.1 81.0
02/03/2019 21:00 1291.29 72.0 0.00 -- 32.8 81.0
02/03/2019 20:00 1291.30 73.0 0.00 -- 31.0 85.0
02/03/2019 19:00 1291.30 73.0 0.00 -- 28.2 90.0
02/03/2019 18:00 1291.32 74.0 0.00 -- 29.0 86.0
02/03/2019 17:00 1291.33 74.0 0.00 -- 30.0 83.0
02/03/2019 16:00 1291.33 75.0 0.02 -- 33.0 73.0
02/03/2019 15:00 1291.33 74.0 0.01 -- 31.6 76.0
02/03/2019 14:00 1291.34 75.0 0.00 -- 31.0 79.0
02/03/2019 13:00 1291.34 75.0 0.00 -- 30.3 80.0
02/03/2019 12:00 1291.35 75.0 0.00 -- 28.9 76.0
02/03/2019 11:00 1291.35 76.0 0.00 -- 25.8 74.0
02/03/2019 10:00 1291.36 76.0 0.00 -- 23.1 77.0
02/03/2019 09:00 1291.37 77.0 0.00 -- 20.7 80.0
02/03/2019 08:00 1291.38 77.0 0.00 -- 18.9 86.0
02/03/2019 07:00 1291.38 77.0 0.00 -- 17.7 87.0
02/03/2019 06:00 1291.39 78.0 0.00 -- 16.7 88.0
02/03/2019 05:00 1291.40 78.0 0.00 -- 15.5 92.0
02/03/2019 04:00 1291.40 78.0 0.00 -- 14.9 92.0
02/03/2019 03:00 1291.42 79.0 0.00 -- 17.8 85.0
02/03/2019 02:00 1291.42 79.0 0.00 -- 21.1 77.0
02/03/2019 01:00 1291.43 80.0 0.00 -- 23.6 70.0
02/03/2019 00:00 1291.44 80.0 0.00 0.06 24.7 68.0
02/02/2019 23:00 1291.44 80.0 0.00 -- 25.4 70.0
02/02/2019 22:00 1291.45 81.0 0.00 -- 26.2 70.0
02/02/2019 21:00 1291.46 81.0 0.00 -- 26.6 72.0
02/02/2019 20:00 1291.46 81.0 0.00 -- 26.0 69.0
02/02/2019 19:00 1291.46 82.0 0.00 -- 23.5 50.0
02/02/2019 18:00 1291.47 82.0 0.00 -- 22.6 47.0
02/02/2019 17:00 1291.48 83.0 0.00 -- 22.7 44.0
02/02/2019 16:00 1291.49 83.0 0.00 -- 23.0 40.0
02/02/2019 15:00 1291.51 83.0 0.00 -- 22.6 36.0
02/02/2019 14:00 1291.50 83.0 0.00 -- 20.3 33.0
02/02/2019 13:00 1291.50 84.0 0.00 -- 14.9 38.0
02/02/2019 12:00 1291.50 84.0 0.00 -- 13.5 42.0
02/02/2019 11:00 1291.52 84.0 0.00 -- 11.5 42.0
02/02/2019 10:00 1291.52 85.0 0.00 -- 8.9 56.0
02/02/2019 09:00 1291.53 85.0 0.00 -- 6.0 56.0
02/02/2019 08:00 1291.54 86.0 0.00 -- -0.1 73.0
02/02/2019 07:00 1291.55 87.0 0.00 -- 1.3 67.0
02/02/2019 06:00 1291.57 87.0 0.00 -- 1.1 73.0
02/02/2019 05:00 1291.58 88.0 0.00 -- 2.1 69.0
02/02/2019 04:00 1291.58 88.0 0.00 -- -1.4 75.0
02/02/2019 03:00 1291.59 89.0 0.00 -- -3.9 77.0
02/02/2019 02:00 1291.60 89.0 0.00 -- -3.4 76.0
02/02/2019 01:00 1291.60 90.0 0.00 -- -1.2 77.0
02/02/2019 00:00 1291.61 90.0 0.00 0.00 -2.1 77.0
02/01/2019 23:00 1291.61 91.0 0.00 -- -1.5 71.0
02/01/2019 22:00 1291.63 91.0 0.00 -- 2.1 68.0
02/01/2019 21:00 1291.64 91.0 0.00 -- 3.7 58.0
02/01/2019 20:00 1291.67 91.0 0.00 -- 2.9 62.0
02/01/2019 19:00 1291.67 92.0 0.00 -- 5.5 54.0
02/01/2019 18:00 1291.66 93.0 0.00 -- 7.5 49.0
02/01/2019 17:00 1291.67 93.0 0.00 -- 9.7 46.0
02/01/2019 16:00 1291.68 94.0 0.00 -- 11.1 42.0
02/01/2019 15:00 1291.69 94.0 0.00 -- 11.4 41.0
02/01/2019 14:00 1291.70 95.0 0.00 -- 12.3 40.0
02/01/2019 13:00 1291.70 95.0 0.00 -- 11.3 43.0
02/01/2019 12:00 1291.71 96.0 0.00 -- 10.0 41.0
02/01/2019 11:00 1291.72 95.0 0.00 -- 7.3 44.0
02/01/2019 10:00 1291.73 96.0 0.00 -- 4.4 48.0
02/01/2019 09:00 1291.74 97.0 0.00 -- 2.6 53.0
02/01/2019 08:00 1291.76 98.0 0.00 -- -0.4 53.0
02/01/2019 07:00 1291.76 99.0 0.00 -- -1.4 56.0
02/01/2019 06:00 1291.77 98.0 0.00 -- -0.8 55.0
02/01/2019 05:00 1291.80 99.0 0.00 -- -0.9 52.0
02/01/2019 04:00 1291.80 100.0 0.00 -- -0.7 49.0
02/01/2019 03:00 1291.80 101.0 0.00 -- 0.2 48.0
02/01/2019 02:00 1291.81 101.0 0.00 -- 0.6 45.0
02/01/2019 01:00 1291.83 101.0 0.00 -- 1.3 42.0
02/01/2019 00:00 1291.84 102.0 0.00 0.00 1.6 43.0
01/31/2019 23:00 1291.83 103.0 0.00 -- 0.6 48.0
01/31/2019 22:00 1291.85 102.0 0.00 -- 0.7 45.0
01/31/2019 21:00 1291.86 103.0 0.00 -- 0.2 43.0
01/31/2019 20:00 1291.88 104.0 0.00 -- 2.4 42.0
01/31/2019 19:00 1291.87 105.0 0.00 -- 3.0 38.0
01/31/2019 18:00 1291.89 105.0 0.00 -- 3.4 44.0
01/31/2019 17:00 1291.90 106.0 0.00 -- 5.2 35.0
01/31/2019 16:00 1291.91 107.0 0.00 -- 6.6 32.0
01/31/2019 15:00 1291.91 107.0 0.00 -- 7.1 35.0
01/31/2019 14:00 1291.94 108.0 0.00 -- 6.8 33.0
01/31/2019 13:00 1291.94 108.0 0.00 -- 6.7 36.0
01/31/2019 12:00 1291.94 109.0 0.00 -- 4.4 36.0
01/31/2019 11:00 1291.95 108.0 0.00 -- 1.3 40.0
01/31/2019 10:00 1291.97 110.0 0.00 -- -1.9 42.0
01/31/2019 09:00 1291.97 110.0 0.00 -- -5.1 49.0
01/31/2019 08:00 1291.98 111.0 0.00 -- -6.9 53.0
01/31/2019 07:00 1291.99 111.0 0.00 -- -7.7 51.0
01/31/2019 06:00 1292.01 112.0 0.00 -- -7.5 49.0
01/31/2019 05:00 1292.00 112.0 0.00 -- -7.5 50.0
01/31/2019 04:00 1292.02 113.0 0.00 -- -6.6 50.0
01/31/2019 03:00 1292.04 114.0 0.00 -- -6.4 51.0
01/31/2019 02:00 1292.05 114.0 0.00 -- -5.9 48.0
01/31/2019 01:00 1292.06 115.0 0.00 -- -5.1 50.0
01/31/2019 00:00 1292.06 115.0 0.00 0.00 -4.4 43.0
01/30/2019 23:00 1292.08 116.0 0.00 -- -3.4 44.0
01/30/2019 22:00 1292.07 116.0 0.00 -- -1.2 42.0
01/30/2019 21:00 1292.10 117.0 0.00 -- 1.4 61.0
01/30/2019 20:00 1292.11 119.0 0.00 -- 5.2 72.0
01/30/2019 19:00 1292.12 119.0 0.00 -- 11.0 53.0
01/30/2019 18:00 1292.12 119.0 0.00 -- 12.1 65.0
01/30/2019 17:00 1292.15 120.0 0.00 -- 18.7 42.0
01/30/2019 16:00 1292.16 119.0 0.00 -- 20.0 38.0
01/30/2019 15:00 1292.15 121.0 0.00 -- 20.4 34.0
01/30/2019 14:00 1292.20 121.0 0.00 -- 22.3 30.0
01/30/2019 13:00 1292.17 121.0 0.00 -- 19.3 31.0
01/30/2019 12:00 1292.16 121.0 0.00 -- 17.4 33.0
01/30/2019 11:00 1292.18 122.0 0.00 -- 15.6 44.0
01/30/2019 10:00 1292.19 123.0 0.00 -- 15.7 51.0
01/30/2019 09:00 1292.21 124.0 0.00 -- 15.2 69.0
01/30/2019 08:00 1292.22 125.0 0.00 -- 16.6 83.0
01/30/2019 07:00 1292.23 125.0 0.00 -- 18.8 90.0
01/30/2019 06:00 1292.23 126.0 0.00 -- 19.4 97.0
01/30/2019 05:00 1292.24 126.0 0.00 -- 16.4 97.0
01/30/2019 04:00 1292.26 126.0 0.00 -- 16.1 96.0
01/30/2019 03:00 1292.26 127.0 0.00 -- 15.4 96.0
01/30/2019 02:00 1292.27 128.0 0.00 -- 14.5 95.0
01/30/2019 01:00 1292.28 128.0 0.00 -- 13.8 94.0
01/30/2019 00:00 1292.29 129.0 0.00 0.00 13.5 93.0
01/29/2019 23:00 1292.30 129.0 0.00 -- 13.9 93.0
01/29/2019 22:00 1292.31 129.0 0.00 -- 13.6 92.0
01/29/2019 21:00 1292.31 130.0 0.00 -- 13.4 93.0
01/29/2019 20:00 1292.31 131.0 0.00 -- 13.5 90.0
01/29/2019 19:00 1292.33 130.0 0.00 -- 13.9 92.0
01/29/2019 18:00 1292.33 132.0 0.00 -- 13.6 93.0
01/29/2019 17:00 1292.35 131.0 0.00 -- 13.3 89.0
01/29/2019 16:00 1292.35 133.0 0.00 -- 12.9 83.0
01/29/2019 15:00 1292.36 133.0 0.00 -- 13.2 81.0
01/29/2019 14:00 1292.37 133.0 0.00 -- 13.4 78.0
01/29/2019 13:00 1292.38 134.0 0.00 -- 13.4 76.0
01/29/2019 12:00 1292.39 134.0 0.00 -- 12.6 78.0
01/29/2019 11:00 1292.41 135.0 0.00 -- 12.2 79.0
01/29/2019 10:00 1292.41 136.0 0.00 -- 10.5 75.0
01/29/2019 09:00 1292.42 136.0 0.00 -- 8.9 72.0
01/29/2019 08:00 1292.43 137.0 0.00 -- 7.9 70.0
01/29/2019 07:00 1292.43 137.0 0.00 -- 7.8 69.0
01/29/2019 06:00 1292.45 138.0 0.00 -- 7.9 66.0
01/29/2019 05:00 1292.46 139.0 0.00 -- 6.2 72.0
01/29/2019 04:00 1292.47 139.0 0.00 -- 3.2 81.0
01/29/2019 03:00 1292.48 140.0 0.00 -- 1.9 85.0
01/29/2019 02:00 1292.49 141.0 0.00 -- 0.4 81.0
01/29/2019 01:00 1292.50 142.0 0.00 -- 0.9 81.0
01/29/2019 00:00 1292.51 142.0 0.00 0.00 2.3 78.0
01/28/2019 23:00 1292.52 142.0 0.00 -- 3.8 78.0
01/28/2019 22:00 1292.53 143.0 0.00 -- 4.2 73.0
01/28/2019 21:00 1292.55 144.0 0.00 -- 7.0 64.0
01/28/2019 20:00 1292.55 144.0 0.00 -- 9.1 63.0
01/28/2019 19:00 1292.57 145.0 0.00 -- 10.9 59.0
01/28/2019 18:00 1292.57 145.0 0.00 -- 13.2 51.0
01/28/2019 17:00 1292.59 146.0 0.00 -- 15.6 44.0
01/28/2019 16:00 1292.59 147.0 0.00 -- 17.8 39.0
01/28/2019 15:00 1292.60 147.0 0.00 -- 17.7 41.0
01/28/2019 14:00 1292.60 148.0 0.00 -- 19.3 43.0
01/28/2019 13:00 1292.60 148.0 0.00 -- 18.5 41.0
01/28/2019 12:00 1292.61 149.0 0.00 -- 15.6 48.0
01/28/2019 11:00 1292.65 149.0 0.00 -- 13.7 52.0
01/28/2019 10:00 1292.63 150.0 0.00 -- 12.6 57.0
01/28/2019 09:00 1292.67 -- 0.00 -- 11.4 64.0
01/28/2019 08:00 1292.66 152.0 0.00 -- 11.1 64.0
01/28/2019 07:00 1292.68 152.0 0.00 -- 10.4 64.0
01/28/2019 06:00 1292.69 152.0 0.00 -- 12.5 57.0
01/28/2019 05:00 1292.70 153.0 0.00 -- 13.5 60.0
01/28/2019 04:00 1292.71 154.0 0.00 -- 15.4 56.0
01/28/2019 03:00 1292.71 155.0 0.00 -- 16.9 59.0
01/28/2019 02:00 1292.72 155.0 0.00 -- 19.8 65.0
01/28/2019 01:00 1292.73 155.0 0.00 -- 22.0 68.0
01/28/2019 00:00 1292.73 155.0 0.00 0.00 23.9 70.0
01/27/2019 23:00 1292.75 157.0 0.00 -- 26.2 68.0
01/27/2019 22:00 1292.76 157.0 0.00 -- 28.3 76.0
01/27/2019 21:00 1292.76 157.0 0.00 -- 31.4 74.0
01/27/2019 20:00 1292.75 157.0 0.00 -- 30.4 81.0
01/27/2019 19:00 1292.77 158.0 0.00 -- 29.4 94.0
01/27/2019 18:00 1292.78 158.0 0.00 -- 28.9 99.0
01/27/2019 17:00 1292.78 159.0 0.00 -- 29.3 99.0
01/27/2019 16:00 1292.77 159.0 0.00 -- 30.8 99.0
01/27/2019 15:00 1292.79 159.0 0.00 -- 31.9 83.0
01/27/2019 14:00 1292.78 159.0 0.00 -- 32.4 74.0
01/27/2019 13:00 1292.81 159.0 0.00 -- 31.2 70.0
01/27/2019 12:00 1292.81 160.0 0.00 -- 28.7 74.0
01/27/2019 11:00 1292.81 160.0 0.00 -- 27.0 69.0
01/27/2019 10:00 1292.81 161.0 0.00 -- 23.2 58.0
01/27/2019 09:00 1292.82 161.0 0.00 -- 12.9 82.0
01/27/2019 08:00 1292.84 161.0 0.00 -- 6.2 82.0
01/27/2019 07:00 1292.85 162.0 0.00 -- 4.0 82.0
01/27/2019 06:00 1292.85 162.0 0.00 -- 4.1 82.0
01/27/2019 05:00 1292.86 163.0 0.00 -- 2.6 82.0
01/27/2019 04:00 1292.86 163.0 0.00 -- 4.6 86.0
01/27/2019 03:00 1292.87 163.0 0.00 -- 1.9 82.0
01/27/2019 02:00 1292.88 164.0 0.00 -- 2.4 82.0
01/27/2019 01:00 1292.88 165.0 0.00 -- 3.0 83.0
01/27/2019 00:00 1292.88 164.0 0.00 0.00 4.5 86.0
01/26/2019 23:00 1292.89 165.0 0.00 -- 5.0 84.0
01/26/2019 22:00 1292.89 165.0 0.00 -- 6.4 85.0
01/26/2019 21:00 1292.89 165.0 0.00 -- 7.2 83.0
01/26/2019 20:00 1292.89 166.0 0.00 -- 10.3 78.0
01/26/2019 19:00 1292.90 165.0 0.00 -- 12.5 70.0
01/26/2019 18:00 1292.89 166.0 0.00 -- 15.4 57.0
01/26/2019 17:00 1292.89 166.0 0.00 -- 18.1 50.0
01/26/2019 16:00 1292.90 166.0 0.00 -- 19.5 47.0
01/26/2019 15:00 1292.89 166.0 0.00 -- 20.8 46.0
01/26/2019 14:00 1292.90 165.0 0.00 -- 22.2 43.0
01/26/2019 13:00 1292.87 165.0 0.00 -- 20.2 45.0
01/26/2019 12:00 1292.87 166.0 0.00 -- 18.4 46.0
01/26/2019 11:00 1292.88 165.0 0.00 -- 16.9 48.0
01/26/2019 10:00 1292.88 164.0 0.00 -- 16.0 48.0
01/26/2019 09:00 1292.86 163.0 0.00 -- 13.2 52.0
01/26/2019 08:00 1292.86 164.0 0.00 -- 10.5 60.0
01/26/2019 07:00 1292.86 164.0 0.00 -- 11.3 56.0
01/26/2019 06:00 1292.85 163.0 0.00 -- 11.1 61.0
01/26/2019 05:00 1292.85 163.0 0.00 -- 11.4 66.0
01/26/2019 04:00 1292.84 163.0 0.00 -- 12.2 63.0
01/26/2019 03:00 1292.83 162.0 0.00 -- 12.6 61.0
01/26/2019 02:00 1292.82 162.0 0.00 -- 12.9 60.0
01/26/2019 01:00 1292.82 162.0 0.00 -- 14.3 54.0
01/26/2019 00:00 1292.80 161.0 0.00 0.00 14.9 52.0
01/25/2019 23:00 1292.80 160.0 0.00 -- 15.8 49.0
01/25/2019 22:00 1292.78 159.0 0.00 -- 17.0 46.0
01/25/2019 21:00 1292.77 159.0 0.00 -- 18.3 52.0
01/25/2019 20:00 1292.75 158.0 0.00 -- 19.6 59.0
01/25/2019 19:00 1292.72 157.0 0.00 -- 20.7 57.0
01/25/2019 18:00 1292.70 155.0 0.00 -- 23.0 48.0
01/25/2019 17:00 1292.68 154.0 0.00 -- 24.4 49.0
01/25/2019 16:00 1292.65 152.0 0.00 -- 26.4 45.0
01/25/2019 15:00 1292.49 147.0 0.00 -- 27.0 45.0
01/25/2019 14:00 1292.37 138.0 0.00 -- 28.1 44.0
01/25/2019 13:00 1292.44 127.0 0.00 -- 28.1 44.0
01/25/2019 12:00 1292.48 143.0 0.00 -- 26.8 57.0
01/25/2019 11:00 1292.43 139.0 0.00 -- 26.5 66.0
01/25/2019 10:00 1292.39 137.0 0.00 -- 26.4 68.0
01/25/2019 09:00 1292.35 135.0 0.00 -- 26.0 72.0
01/25/2019 08:00 1292.31 132.0 0.00 -- 24.8 73.0
01/25/2019 07:00 1292.28 130.0 0.00 -- 24.7 67.0
01/25/2019 06:00 1292.21 127.0 0.00 -- 24.5 68.0
01/25/2019 05:00 1292.19 125.0 0.00 -- 24.3 67.0
01/25/2019 04:00 1292.14 123.0 0.00 -- 24.5 67.0
01/25/2019 03:00 1292.11 121.0 0.00 -- 24.9 67.0
01/25/2019 02:00 1292.05 118.0 0.00 -- 25.8 71.0
01/25/2019 01:00 1291.99 114.0 0.00 -- 26.7 73.0
01/25/2019 00:00 1291.93 111.0 0.00 0.00 27.4 76.0
01/24/2019 23:00 1291.86 107.0 0.00 -- 28.7 86.0
01/24/2019 22:00 1291.77 103.0 0.00 -- 30.7 85.0
01/24/2019 21:00 1291.69 98.0 0.00 -- 32.7 99.0
01/24/2019 20:00 1291.58 93.0 0.00 -- 34.7 99.0
01/24/2019 19:00 1291.45 87.0 0.06 -- 37.3 100.0
01/24/2019 18:00 1291.38 79.0 0.05 -- 39.9 100.0
01/24/2019 17:00 1291.29 75.0 0.05 -- 42.6 100.0
01/24/2019 16:00 1291.20 70.0 0.19 -- 42.8 100.0
01/24/2019 15:00 1291.11 67.0 0.34 -- 48.6 100.0
01/24/2019 14:00 1291.01 62.0 0.23 -- 48.6 100.0
01/24/2019 13:00 1290.94 57.0 0.27 -- 49.0 100.0
01/24/2019 12:00 1290.86 53.0 0.18 -- 48.2 100.0
01/24/2019 11:00 1290.81 51.0 0.07 -- 47.7 100.0
01/24/2019 10:00 1290.80 48.0 0.12 -- 47.0 100.0
01/24/2019 09:00 1290.76 48.0 0.13 -- 46.4 100.0
01/24/2019 08:00 1290.76 47.0 0.19 -- 46.1 100.0
01/24/2019 07:00 1290.74 46.0 0.19 -- 45.7 100.0
01/24/2019 06:00 1290.75 46.0 0.18 -- 44.2 100.0
01/24/2019 05:00 1290.74 45.0 0.15 -- 42.2 100.0
01/24/2019 04:00 1290.74 45.0 0.13 -- 40.1 100.0
01/24/2019 03:00 1290.74 45.0 0.13 -- 39.2 100.0
01/24/2019 02:00 1290.74 45.0 0.14 -- 37.5 100.0
01/24/2019 01:00 1290.73 45.0 0.10 -- 35.6 100.0
01/24/2019 00:00 1290.74 45.0 0.08 2.90 33.6 99.0
01/23/2019 23:00 1290.73 45.0 0.05 -- 34.2 99.0
01/23/2019 22:00 1290.73 45.0 0.00 -- 34.5 99.0
01/23/2019 21:00 1290.73 45.0 0.00 -- 32.2 99.0
01/23/2019 20:00 1290.74 45.0 0.00 -- 31.9 94.0
01/23/2019 19:00 1290.73 45.0 0.00 -- 32.1 88.0
01/23/2019 18:00 1290.74 45.0 0.00 -- 32.0 85.0
01/23/2019 17:00 1290.74 45.0 0.00 -- 31.6 83.0
01/23/2019 16:00 1290.75 45.0 0.00 -- 31.2 73.0
01/23/2019 15:00 1290.75 45.0 0.00 -- 30.1 74.0
01/23/2019 14:00 1290.75 46.0 0.00 -- 29.7 59.0
01/23/2019 13:00 1290.76 46.0 0.00 -- 28.6 53.0
01/23/2019 12:00 1290.76 46.0 0.00 -- 28.4 45.0
01/23/2019 11:00 1290.76 45.0 0.00 -- 25.8 41.0
01/23/2019 10:00 1290.76 46.0 0.00 -- 23.0 44.0
01/23/2019 09:00 1290.76 46.0 0.00 -- 21.4 45.0
01/23/2019 08:00 1290.77 46.0 0.00 -- 20.0 47.0
01/23/2019 07:00 1290.77 47.0 0.00 -- 19.5 43.0
01/23/2019 06:00 -- -- -- -- 18.7 45.0
01/23/2019 05:00 -- -- -- -- 18.4 41.0
01/23/2019 04:00 -- -- -- -- 18.0 39.0
01/23/2019 03:00 -- -- -- -- 13.6 40.0
01/23/2019 02:00 -- -- -- -- 9.8 43.0
01/23/2019 01:00 -- -- -- -- 8.4 51.0
01/23/2019 00:00 -- -- -- 0.13 9.7 40.0